Mississippi River Lock and Dam 7
Open river conditions where all gates have been raised completely out of the water currently exist at the following St. Paul District Lock and Dam Locations:
Lock and Dam 10
| Parameter | Latest Value | Date |
|---|---|---|
| Pool (ft) : | 639.09 | 08 May 2026, 06:00 |
| Tailwater (ft) : | 634.68 | 08 May 2026, 06:00 |
| Flow-Out (cfs) : | 61000 | 08 May 2026, 06:00 |
| Air Temp (F) : | 44 | 08 May 2026, 06:00 |
| Water Temp (F) : | 56 | 08 May 2026, 06:00 |
| Wind Speed (mph) : | 4 | 08 May 2026, 06:00 |
| Wind Dir (deg) : | 25 | 08 May 2026, 06:00 |
| Total 24 hr Precip. (in) : | 0.00 | 07 May 2026, 12:00 |
| Date/Time (UTC) | LockDam_07 Elev ft | LockDam_07-Tailwater Elev ft |
|---|---|---|
| May 8, 2026, 06:00 | 639.09 | 634.68 |
| May 8, 2026, 05:45 | 639.05 | 634.68 |
| May 8, 2026, 05:30 | 639.04 | 634.68 |
| May 8, 2026, 05:15 | 639.07 | 634.68 |
| May 8, 2026, 05:00 | 639.06 | 634.68 |
| May 8, 2026, 04:45 | 639.09 | 634.70 |
| May 8, 2026, 04:30 | 639.09 | 634.70 |
| May 8, 2026, 04:15 | 639.09 | 634.70 |
| May 8, 2026, 04:00 | 639.06 | 634.71 |
| May 8, 2026, 03:45 | 639.06 | 634.71 |
| May 8, 2026, 03:30 | 639.11 | 634.72 |
| May 8, 2026, 03:15 | 639.06 | 634.73 |
| May 8, 2026, 03:00 | 639.07 | 634.73 |
| May 8, 2026, 02:45 | 639.06 | 634.74 |
| May 8, 2026, 02:30 | 639.08 | 634.75 |
| May 8, 2026, 02:15 | 639.09 | 634.75 |
| May 8, 2026, 02:00 | 639.09 | 634.78 |
| May 8, 2026, 01:45 | 639.06 | 634.83 |
| May 8, 2026, 01:30 | 639.07 | 634.83 |
| May 8, 2026, 01:15 | 639.09 | 634.83 |
| May 8, 2026, 01:00 | 639.08 | 634.83 |
| May 8, 2026, 00:45 | 639.09 | 634.83 |
| May 8, 2026, 00:30 | 639.11 | 634.83 |
| May 8, 2026, 00:15 | 639.12 | 634.83 |
| May 7, 2026, 24:00 | 639.12 | 634.84 |
| May 7, 2026, 23:45 | 639.13 | 634.84 |
| May 7, 2026, 23:30 | 639.12 | 634.84 |
| May 7, 2026, 23:15 | 639.13 | 634.84 |
| May 7, 2026, 23:00 | 639.13 | 634.84 |
| May 7, 2026, 22:45 | 639.15 | 634.84 |
| May 7, 2026, 22:30 | 639.11 | 634.84 |
| May 7, 2026, 22:15 | 639.16 | 634.84 |
| May 7, 2026, 22:00 | 639.16 | 634.84 |
| May 7, 2026, 21:45 | 639.16 | 634.84 |
| May 7, 2026, 21:30 | 639.16 | 634.84 |
| May 7, 2026, 21:15 | 639.18 | 634.86 |
| May 7, 2026, 21:00 | 639.18 | 634.87 |
| May 7, 2026, 20:45 | 639.16 | 634.87 |
| May 7, 2026, 20:30 | 639.15 | 634.87 |
| May 7, 2026, 20:15 | 639.07 | 634.87 |
| May 7, 2026, 20:00 | 639.18 | 634.88 |
| May 7, 2026, 19:45 | 639.20 | 634.86 |
| May 7, 2026, 19:30 | 639.09 | 634.87 |
| May 7, 2026, 19:15 | 639.20 | 634.87 |
| May 7, 2026, 19:00 | 639.20 | 634.87 |
| May 7, 2026, 18:45 | 639.20 | 634.87 |
| May 7, 2026, 18:30 | 639.16 | 634.87 |
| May 7, 2026, 18:15 | 639.22 | 634.87 |
| May 7, 2026, 18:00 | 639.20 | 634.86 |
| May 7, 2026, 17:45 | 639.18 | 634.87 |
| May 7, 2026, 17:30 | 639.16 | 634.87 |
| May 7, 2026, 17:15 | 639.18 | 634.87 |
| May 7, 2026, 17:00 | 639.18 | 634.87 |
| May 7, 2026, 16:45 | 639.18 | 634.89 |
| May 7, 2026, 16:30 | 639.20 | 634.87 |
| May 7, 2026, 16:15 | 639.18 | 634.88 |
| May 7, 2026, 16:00 | 639.20 | 634.89 |
| May 7, 2026, 15:45 | 639.09 | 634.88 |
| May 7, 2026, 15:30 | 639.20 | 634.87 |
| May 7, 2026, 15:15 | 639.20 | 634.88 |
| May 7, 2026, 15:00 | 639.20 | 634.88 |
| May 7, 2026, 14:45 | 639.20 | 634.88 |
| May 7, 2026, 14:30 | 639.21 | 634.88 |
| May 7, 2026, 14:15 | 639.31 | 634.88 |
| May 7, 2026, 14:00 | 639.20 | 634.88 |
| May 7, 2026, 13:45 | 639.22 | 634.89 |
| May 7, 2026, 13:30 | 639.21 | 634.88 |
| May 7, 2026, 13:15 | 639.20 | 634.90 |
| May 7, 2026, 13:00 | 639.20 | 634.88 |
| May 7, 2026, 12:45 | 639.22 | 634.88 |
| May 7, 2026, 12:30 | 639.24 | 634.89 |
| May 7, 2026, 12:15 | 639.21 | 634.90 |
| May 7, 2026, 12:00 | 639.13 | 634.90 |
| May 7, 2026, 11:45 | 639.20 | 634.89 |
| May 7, 2026, 11:30 | 639.20 | 634.89 |
| May 7, 2026, 11:15 | 639.18 | 634.89 |
| May 7, 2026, 11:00 | 639.20 | 634.89 |
| May 7, 2026, 10:45 | 639.22 | 634.89 |
| May 7, 2026, 10:30 | 639.22 | 634.88 |
| May 7, 2026, 10:15 | 639.20 | 634.89 |
| May 7, 2026, 10:00 | 639.18 | 634.89 |
| May 7, 2026, 09:45 | 639.21 | 634.89 |
| May 7, 2026, 09:30 | 639.22 | 634.89 |
| May 7, 2026, 09:15 | 639.18 | 634.89 |
| May 7, 2026, 09:00 | 639.22 | 634.89 |
| May 7, 2026, 08:45 | 639.18 | 634.89 |
| May 7, 2026, 08:30 | 639.22 | 634.90 |
| May 7, 2026, 08:15 | 639.18 | 634.90 |
| May 7, 2026, 08:00 | 639.20 | 634.90 |
| May 7, 2026, 07:45 | 639.20 | 634.90 |
| May 7, 2026, 07:30 | 639.16 | 634.90 |
| May 7, 2026, 07:15 | 639.18 | 634.90 |
| May 7, 2026, 07:00 | 639.20 | 634.90 |
| May 7, 2026, 06:45 | 639.16 | 634.90 |
| May 7, 2026, 06:30 | 639.20 | 634.90 |
| May 7, 2026, 06:15 | 639.16 | 634.90 |
| May 7, 2026, 06:00 | 639.18 | 634.90 |
| May 7, 2026, 05:45 | 639.18 | 634.90 |
| May 7, 2026, 05:30 | 639.18 | 634.90 |
| May 7, 2026, 05:15 | 639.18 | 634.91 |
| May 7, 2026, 05:00 | 639.21 | 634.90 |
| May 7, 2026, 04:45 | 639.20 | 634.90 |
| May 7, 2026, 04:30 | 639.18 | 634.90 |
| May 7, 2026, 04:15 | 639.18 | 634.90 |
| May 7, 2026, 04:00 | 639.15 | 634.89 |
| May 7, 2026, 03:45 | 639.21 | 634.90 |
| May 7, 2026, 03:30 | 639.16 | 634.93 |
| May 7, 2026, 03:15 | 639.11 | 634.91 |
| May 7, 2026, 03:00 | 639.16 | 634.93 |
| May 7, 2026, 02:45 | 639.20 | 634.89 |
| May 7, 2026, 02:30 | 639.16 | 634.90 |
| May 7, 2026, 02:15 | 639.20 | 634.90 |
| May 7, 2026, 02:00 | 639.21 | 634.90 |
| May 7, 2026, 01:45 | 639.21 | 634.90 |
| May 7, 2026, 01:30 | 639.20 | 634.90 |
| May 7, 2026, 01:15 | 639.16 | 634.90 |
| May 7, 2026, 01:00 | 639.18 | 634.90 |
| May 7, 2026, 00:45 | 639.20 | 634.89 |
| May 7, 2026, 00:30 | 639.22 | 634.88 |
| May 7, 2026, 00:15 | 639.21 | 634.89 |
| May 6, 2026, 24:00 | 639.20 | 634.82 |
| May 6, 2026, 23:45 | 639.20 | 634.91 |
| May 6, 2026, 23:30 | 639.18 | 634.91 |
| May 6, 2026, 23:15 | 639.20 | 634.91 |
| May 6, 2026, 23:00 | 639.20 | 634.91 |
| May 6, 2026, 22:45 | 639.18 | 634.91 |
| May 6, 2026, 22:30 | 639.20 | 634.90 |
| May 6, 2026, 22:15 | 639.18 | 634.91 |
| May 6, 2026, 22:00 | 639.18 | 634.91 |
| May 6, 2026, 21:45 | 639.18 | 634.91 |
| May 6, 2026, 21:30 | 639.18 | 634.91 |
| May 6, 2026, 21:15 | 639.16 | 634.91 |
| May 6, 2026, 21:00 | 639.18 | 634.91 |
| May 6, 2026, 20:45 | 639.18 | 634.91 |
| May 6, 2026, 20:30 | 639.20 | 634.91 |
| May 6, 2026, 20:15 | 639.16 | 634.91 |
| May 6, 2026, 20:00 | 639.16 | 634.91 |
| May 6, 2026, 19:45 | 639.14 | 634.91 |
| May 6, 2026, 19:30 | 639.13 | 634.93 |
| May 6, 2026, 19:15 | 639.13 | 634.93 |
| May 6, 2026, 19:00 | 639.12 | 634.93 |
| May 6, 2026, 18:45 | 639.13 | 634.93 |
| May 6, 2026, 18:30 | 639.16 | 634.95 |
| May 6, 2026, 18:15 | 639.06 | 634.96 |
| May 6, 2026, 18:00 | 639.16 | 634.97 |
| May 6, 2026, 17:45 | 639.15 | 634.96 |
| May 6, 2026, 17:30 | 639.13 | 634.97 |
| May 6, 2026, 17:15 | 639.11 | 634.99 |
| May 6, 2026, 17:00 | 639.16 | 635.04 |
| May 6, 2026, 16:45 | 639.13 | 635.05 |
| May 6, 2026, 16:30 | 639.11 | 635.18 |
| May 6, 2026, 16:15 | 639.08 | 635.18 |
| May 6, 2026, 16:00 | 639.08 | 635.12 |
| May 6, 2026, 15:45 | 639.07 | 635.11 |
| May 6, 2026, 15:30 | 639.09 | 635.18 |
| May 6, 2026, 15:15 | 639.09 | 635.18 |
| May 6, 2026, 15:00 | 639.21 | 635.13 |
| May 6, 2026, 14:45 | 639.12 | 635.18 |
| May 6, 2026, 14:30 | 639.13 | 635.18 |
| May 6, 2026, 14:15 | 639.13 | 635.15 |
| May 6, 2026, 14:00 | 639.13 | 635.14 |
| May 6, 2026, 13:45 | 639.12 | 635.16 |
| May 6, 2026, 13:30 | 639.13 | 635.13 |
| May 6, 2026, 13:15 | 639.12 | 635.18 |
| May 6, 2026, 13:00 | 639.14 | 635.18 |
| May 6, 2026, 12:45 | 639.14 | 635.18 |
| May 6, 2026, 12:30 | 639.15 | 635.18 |
| May 6, 2026, 12:15 | 639.13 | 635.18 |
| May 6, 2026, 12:00 | 639.13 | 635.18 |
| May 6, 2026, 11:45 | 639.13 | 635.18 |
| May 6, 2026, 11:30 | 639.12 | 635.18 |
| May 6, 2026, 11:15 | 639.12 | 635.18 |
| May 6, 2026, 11:00 | 639.12 | 635.18 |
| May 6, 2026, 10:45 | 639.12 | 635.18 |
| May 6, 2026, 10:30 | 639.14 | 635.18 |
| May 6, 2026, 10:15 | 639.13 | 635.18 |
| May 6, 2026, 10:00 | 639.12 | 635.18 |
| May 6, 2026, 09:45 | 639.12 | 635.18 |
| May 6, 2026, 09:30 | 639.12 | 635.18 |
| May 6, 2026, 09:15 | 639.13 | 635.18 |
| May 6, 2026, 09:00 | 639.13 | 635.18 |
| May 6, 2026, 08:45 | 639.13 | 635.18 |
| May 6, 2026, 08:30 | 639.12 | 635.18 |
| May 6, 2026, 08:15 | 639.11 | 635.18 |
| May 6, 2026, 08:00 | 639.11 | 635.18 |
| May 6, 2026, 07:45 | 639.13 | 635.18 |
| May 6, 2026, 07:30 | 639.12 | 635.18 |
| May 6, 2026, 07:15 | 639.12 | 635.16 |
| May 6, 2026, 07:00 | 639.13 | 635.16 |
| May 6, 2026, 06:45 | 639.15 | 635.18 |
| May 6, 2026, 06:30 | 639.15 | 635.16 |
| May 6, 2026, 06:15 | 639.12 | 635.16 |
| May 6, 2026, 06:00 | 639.11 | 635.16 |
| May 6, 2026, 05:45 | 639.11 | 635.16 |
| May 6, 2026, 05:30 | 639.11 | 635.16 |
| May 6, 2026, 05:15 | 639.12 | 635.16 |
| May 6, 2026, 05:00 | 639.12 | 635.16 |
| May 6, 2026, 04:45 | 639.11 | 635.18 |
| May 6, 2026, 04:30 | 639.09 | 635.16 |
| May 6, 2026, 04:15 | 639.11 | 635.16 |
| May 6, 2026, 04:00 | 639.09 | 635.16 |
| May 6, 2026, 03:45 | 639.11 | 635.16 |
| May 6, 2026, 03:30 | 639.09 | 635.18 |
| May 6, 2026, 03:15 | 639.09 | 635.18 |
| May 6, 2026, 03:00 | 639.09 | 635.20 |
| May 6, 2026, 02:45 | 639.09 | 635.16 |
| May 6, 2026, 02:30 | 639.09 | 635.18 |
| May 6, 2026, 02:15 | 639.09 | 635.16 |
| May 6, 2026, 02:00 | 639.13 | 635.18 |
| May 6, 2026, 01:45 | 639.07 | 635.16 |
| May 6, 2026, 01:30 | 639.11 | 635.16 |
| May 6, 2026, 01:15 | 639.09 | 635.16 |
| May 6, 2026, 01:00 | 639.09 | 635.18 |
| May 6, 2026, 00:45 | 639.03 | 635.18 |
| May 6, 2026, 00:30 | 639.13 | 635.18 |
| May 6, 2026, 00:15 | 639.11 | 635.16 |
| May 5, 2026, 24:00 | 639.13 | 635.16 |
| May 5, 2026, 23:45 | 639.11 | 635.16 |
| May 5, 2026, 23:30 | 639.15 | 635.16 |
| May 5, 2026, 23:15 | 639.21 | 635.16 |
| May 5, 2026, 23:00 | 639.14 | 635.18 |
| May 5, 2026, 22:45 | 639.13 | 635.16 |
| May 5, 2026, 22:30 | 639.13 | 635.20 |
| May 5, 2026, 22:15 | 639.11 | 635.06 |
| May 5, 2026, 22:00 | 639.03 | 635.07 |
| May 5, 2026, 21:45 | 639.15 | 635.16 |
| May 5, 2026, 21:30 | 639.16 | 635.20 |
| May 5, 2026, 21:15 | 639.15 | 635.18 |
| May 5, 2026, 21:00 | 639.13 | 635.13 |
| May 5, 2026, 20:45 | 639.08 | 635.18 |
| May 5, 2026, 20:30 | 639.13 | 635.18 |
| May 5, 2026, 20:15 | 639.15 | 635.18 |
| May 5, 2026, 20:00 | 639.18 | 635.18 |
| May 5, 2026, 19:45 | 639.13 | 635.18 |
| May 5, 2026, 19:30 | 639.12 | 635.16 |
| May 5, 2026, 19:15 | 639.03 | 635.16 |
| May 5, 2026, 19:00 | 639.11 | 635.18 |
| May 5, 2026, 18:45 | 639.18 | 635.18 |
| May 5, 2026, 18:30 | 639.09 | 635.16 |
| May 5, 2026, 18:15 | 639.09 | 635.16 |
| May 5, 2026, 18:00 | 639.09 | 635.16 |
| May 5, 2026, 17:45 | 639.11 | 635.16 |
| May 5, 2026, 17:30 | 639.11 | 635.16 |
| May 5, 2026, 17:15 | 639.12 | 635.18 |
| May 5, 2026, 17:00 | 639.16 | 635.18 |
| May 5, 2026, 16:45 | 639.18 | 635.18 |
| May 5, 2026, 16:30 | 639.13 | 635.18 |
| May 5, 2026, 16:15 | 639.07 | 635.16 |
| May 5, 2026, 16:00 | 639.16 | 635.18 |
| May 5, 2026, 15:45 | 639.15 | 635.18 |
| May 5, 2026, 15:30 | 639.11 | 635.18 |
| May 5, 2026, 15:15 | 639.11 | 635.18 |
| May 5, 2026, 15:00 | 639.13 | 635.18 |
| May 5, 2026, 14:45 | 639.15 | 635.18 |
| May 5, 2026, 14:30 | 639.11 | 635.18 |
| May 5, 2026, 14:15 | 639.12 | 635.18 |
| May 5, 2026, 14:00 | 639.09 | 635.18 |
| May 5, 2026, 13:45 | 639.12 | 635.18 |
| May 5, 2026, 13:30 | 639.09 | 635.20 |
| May 5, 2026, 13:15 | 639.09 | 635.22 |
| May 5, 2026, 13:00 | 639.09 | 635.23 |
| May 5, 2026, 12:45 | 639.05 | 635.22 |
| May 5, 2026, 12:30 | 639.08 | 635.23 |
| May 5, 2026, 12:15 | 639.12 | 635.22 |
| May 5, 2026, 12:00 | 639.06 | 635.23 |
| May 5, 2026, 11:45 | 639.06 | 635.22 |
| May 5, 2026, 11:30 | 639.06 | 635.22 |
| May 5, 2026, 11:15 | 639.05 | 635.22 |
| May 5, 2026, 11:00 | 639.08 | 635.23 |
| May 5, 2026, 10:45 | 639.07 | 635.23 |
| May 5, 2026, 10:30 | 639.08 | 635.23 |
| May 5, 2026, 10:15 | 639.06 | 635.23 |
| May 5, 2026, 10:00 | 639.08 | 635.23 |
| May 5, 2026, 09:45 | 639.08 | 635.23 |
| May 5, 2026, 09:30 | 639.06 | 635.23 |
| May 5, 2026, 09:15 | 639.07 | 635.23 |
| May 5, 2026, 09:00 | 639.08 | 635.23 |
| May 5, 2026, 08:45 | 639.06 | 635.23 |
| May 5, 2026, 08:30 | 639.07 | 635.23 |
| May 5, 2026, 08:15 | 639.08 | 635.23 |
| May 5, 2026, 08:00 | 639.08 | 635.24 |
| May 5, 2026, 07:45 | 639.09 | 635.23 |
| May 5, 2026, 07:30 | 639.08 | 635.24 |
| May 5, 2026, 07:15 | 639.07 | 635.23 |
| May 5, 2026, 07:00 | 639.08 | 635.23 |
| May 5, 2026, 06:45 | 639.08 | 635.23 |
| May 5, 2026, 06:30 | 639.08 | 635.24 |
| May 5, 2026, 06:15 | 639.09 | 635.24 |
| May 5, 2026, 06:00 | 639.09 | 635.24 |
| May 5, 2026, 05:45 | 639.12 | 635.24 |
| May 5, 2026, 05:30 | 639.09 | 635.24 |
| May 5, 2026, 05:15 | 639.12 | 635.24 |
| May 5, 2026, 05:00 | 639.11 | 635.24 |
| May 5, 2026, 04:45 | 639.16 | 635.25 |
| May 5, 2026, 04:30 | 639.18 | 635.25 |
| May 5, 2026, 04:15 | 639.13 | 635.24 |
| May 5, 2026, 04:00 | 639.13 | 635.24 |
| May 5, 2026, 03:45 | 639.09 | 635.23 |
| May 5, 2026, 03:30 | 639.06 | 635.23 |
| May 5, 2026, 03:15 | 639.09 | 635.23 |
| May 5, 2026, 03:00 | 639.13 | 635.24 |
| May 5, 2026, 02:45 | 639.13 | 635.24 |
| May 5, 2026, 02:30 | 639.15 | 635.23 |
| May 5, 2026, 02:15 | 639.13 | 635.25 |
| May 5, 2026, 02:00 | 639.13 | 635.23 |
| May 5, 2026, 01:45 | 639.15 | 635.23 |
| May 5, 2026, 01:30 | 639.16 | 635.23 |
| May 5, 2026, 01:15 | 639.21 | 635.25 |
| May 5, 2026, 01:00 | 639.13 | 635.25 |
| May 5, 2026, 00:45 | 639.13 | 635.24 |
| May 5, 2026, 00:30 | 639.21 | 635.24 |
| May 5, 2026, 00:15 | 639.14 | 635.24 |
| May 4, 2026, 24:00 | 639.11 | 635.24 |
| May 4, 2026, 23:45 | 639.15 | 635.24 |
| May 4, 2026, 23:30 | 639.12 | 635.24 |
| May 4, 2026, 23:15 | 639.12 | 635.24 |
| May 4, 2026, 23:00 | 639.09 | 635.23 |
| May 4, 2026, 22:45 | 639.12 | 635.24 |
| May 4, 2026, 22:30 | 639.11 | 635.23 |
| May 4, 2026, 22:15 | 639.09 | 635.23 |
| May 4, 2026, 22:00 | 639.11 | 635.23 |
| May 4, 2026, 21:45 | 639.13 | 635.23 |
| May 4, 2026, 21:30 | 639.11 | 635.24 |
| May 4, 2026, 21:15 | 639.13 | 635.24 |
| May 4, 2026, 21:00 | 639.09 | 635.23 |
| May 4, 2026, 20:45 | 639.15 | 635.24 |
| May 4, 2026, 20:30 | 639.13 | 635.24 |
| May 4, 2026, 20:15 | 639.16 | 635.24 |
| May 4, 2026, 20:00 | 639.13 | 635.24 |
| May 4, 2026, 19:45 | 639.16 | 635.24 |
| May 4, 2026, 19:30 | 639.15 | 635.24 |
| May 4, 2026, 19:15 | 639.12 | 635.25 |
| May 4, 2026, 19:00 | 639.18 | 635.24 |
| May 4, 2026, 18:45 | 639.13 | 635.24 |
| May 4, 2026, 18:30 | 639.11 | 635.24 |
| May 4, 2026, 18:15 | 639.16 | 635.25 |
| May 4, 2026, 18:00 | 639.16 | 635.25 |
| May 4, 2026, 17:45 | 639.15 | 635.24 |
| May 4, 2026, 17:30 | 639.13 | 635.25 |
| May 4, 2026, 17:15 | 639.11 | 635.24 |
| May 4, 2026, 17:00 | 639.15 | 635.25 |
| May 4, 2026, 16:45 | 639.13 | 635.25 |
| May 4, 2026, 16:30 | 639.18 | 635.25 |
| May 4, 2026, 16:15 | 639.09 | 635.25 |
| May 4, 2026, 16:00 | 639.14 | 635.25 |
| May 4, 2026, 15:45 | 639.13 | 635.25 |
| May 4, 2026, 15:30 | 639.09 | 635.25 |
| May 4, 2026, 15:15 | 639.13 | 635.18 |
| May 4, 2026, 15:00 | 639.15 | 635.20 |
| May 4, 2026, 14:45 | 639.09 | 635.25 |
| May 4, 2026, 14:30 | 639.09 | 635.25 |
| May 4, 2026, 14:15 | 639.07 | 635.28 |
| May 4, 2026, 14:00 | 638.33 | 635.27 |
| May 4, 2026, 13:45 | 639.06 | 635.25 |
| May 4, 2026, 13:30 | 639.08 | 635.27 |
| May 4, 2026, 13:15 | 639.05 | 635.25 |
| May 4, 2026, 13:00 | 639.09 | 635.25 |
| May 4, 2026, 12:45 | 639.08 | 635.25 |
| May 4, 2026, 12:30 | 639.11 | 635.27 |
| May 4, 2026, 12:15 | 639.12 | 635.28 |
| May 4, 2026, 12:00 | 639.06 | 635.28 |
| May 4, 2026, 11:45 | 639.09 | 635.25 |
| May 4, 2026, 11:30 | 639.08 | 635.25 |
| May 4, 2026, 11:15 | 639.11 | 635.25 |
| May 4, 2026, 11:00 | 639.12 | 635.25 |
| May 4, 2026, 10:45 | 639.12 | 635.25 |
| May 4, 2026, 10:30 | 639.08 | 635.25 |
| May 4, 2026, 10:15 | 639.11 | 635.29 |
| May 4, 2026, 10:00 | 639.07 | 635.25 |
| May 4, 2026, 09:45 | 639.09 | 635.25 |
| May 4, 2026, 09:30 | 639.09 | 635.24 |
| May 4, 2026, 09:15 | 639.04 | 635.25 |
| May 4, 2026, 09:00 | 639.14 | 635.24 |
| May 4, 2026, 08:45 | 639.08 | 635.24 |
| May 4, 2026, 08:30 | 639.07 | 635.24 |
| May 4, 2026, 08:15 | 639.12 | 635.25 |
| May 4, 2026, 08:00 | 639.09 | 635.24 |
| May 4, 2026, 07:45 | 639.09 | 635.24 |
| May 4, 2026, 07:30 | 639.12 | 635.24 |
| May 4, 2026, 07:15 | 639.12 | 635.24 |
| May 4, 2026, 07:00 | 639.12 | 635.25 |
| May 4, 2026, 06:45 | 639.14 | 635.24 |
| May 4, 2026, 06:30 | 639.14 | 635.25 |
| May 4, 2026, 06:15 | 639.15 | 635.24 |
| May 4, 2026, 06:00 | 639.14 | 635.24 |
| May 4, 2026, 05:45 | 639.12 | 635.25 |
| May 4, 2026, 05:30 | 639.16 | 635.25 |
| May 4, 2026, 05:15 | 639.22 | 635.24 |
| May 4, 2026, 05:00 | 639.11 | 635.24 |
| May 4, 2026, 04:45 | 639.15 | 635.24 |
| May 4, 2026, 04:30 | 639.15 | 635.24 |
| May 4, 2026, 04:15 | 639.11 | 635.24 |
| May 4, 2026, 04:00 | 639.16 | 635.24 |
| May 4, 2026, 03:45 | 639.14 | 635.24 |
| May 4, 2026, 03:30 | 639.16 | 635.24 |
| May 4, 2026, 03:15 | 639.15 | 635.22 |
| May 4, 2026, 03:00 | 639.16 | 635.18 |
| May 4, 2026, 02:45 | 639.16 | 635.24 |
| May 4, 2026, 02:30 | 639.11 | 635.25 |
| May 4, 2026, 02:15 | 639.12 | 635.24 |
| May 4, 2026, 02:00 | 639.18 | 635.24 |
| May 4, 2026, 01:45 | 639.12 | 635.25 |
| May 4, 2026, 01:30 | 639.22 | 635.24 |
| May 4, 2026, 01:15 | 639.15 | 635.24 |
| May 4, 2026, 01:00 | 639.18 | 635.24 |
| May 4, 2026, 00:45 | 639.16 | 635.24 |
| May 4, 2026, 00:30 | 639.16 | 635.24 |
| May 4, 2026, 00:15 | 639.16 | 635.24 |
| May 3, 2026, 24:00 | 639.18 | 635.24 |
| May 3, 2026, 23:45 | 639.18 | 635.24 |
| May 3, 2026, 23:30 | 639.18 | 635.24 |
| May 3, 2026, 23:15 | 639.18 | 635.24 |
| May 3, 2026, 23:00 | 639.18 | 635.24 |
| May 3, 2026, 22:45 | 639.18 | 635.23 |
| May 3, 2026, 22:30 | 639.18 | 635.23 |
| May 3, 2026, 22:15 | 639.18 | 635.23 |
| May 3, 2026, 22:00 | 639.23 | 635.23 |
| May 3, 2026, 21:45 | 639.20 | 635.24 |
| May 3, 2026, 21:30 | 639.27 | 635.23 |
| May 3, 2026, 21:15 | 639.21 | 635.22 |
| May 3, 2026, 21:00 | 639.22 | 635.23 |
| May 3, 2026, 20:45 | 639.24 | 635.23 |
| May 3, 2026, 20:30 | 639.22 | 635.23 |
| May 3, 2026, 20:15 | 639.22 | 635.24 |
| May 3, 2026, 20:00 | 639.22 | 635.25 |
| May 3, 2026, 19:45 | 639.22 | 635.25 |
| May 3, 2026, 19:30 | 639.20 | 635.24 |
| May 3, 2026, 19:15 | 639.20 | 635.23 |
| May 3, 2026, 19:00 | 639.20 | 635.23 |
| May 3, 2026, 18:45 | 639.21 | 635.22 |
| May 3, 2026, 18:30 | 639.20 | 635.25 |
| May 3, 2026, 18:15 | 639.21 | 635.22 |
| May 3, 2026, 18:00 | 639.20 | 635.22 |
| May 3, 2026, 17:45 | 639.20 | 635.22 |
| May 3, 2026, 17:30 | 639.22 | 635.21 |
| May 3, 2026, 17:15 | 639.22 | 635.20 |
| May 3, 2026, 17:00 | 639.18 | 635.20 |
| May 3, 2026, 16:45 | 639.22 | 635.18 |
| May 3, 2026, 16:30 | 639.21 | 635.18 |
| May 3, 2026, 16:15 | 639.20 | 635.18 |
| May 3, 2026, 16:00 | 639.18 | 635.16 |
| May 3, 2026, 15:45 | 639.21 | 635.18 |
| May 3, 2026, 15:30 | 639.28 | 635.05 |
| May 3, 2026, 15:15 | 639.20 | 635.04 |
| May 3, 2026, 15:00 | 639.21 | 635.04 |
| May 3, 2026, 14:45 | 639.20 | 635.04 |
| May 3, 2026, 14:30 | 639.18 | 635.04 |
| May 3, 2026, 14:15 | 639.15 | 635.04 |
| May 3, 2026, 14:00 | 639.15 | 635.04 |
| May 3, 2026, 13:45 | 639.15 | 635.02 |
| May 3, 2026, 13:30 | 639.13 | 635.03 |
| May 3, 2026, 13:15 | 639.15 | 635.03 |
| May 3, 2026, 13:00 | 639.18 | 635.03 |
| May 3, 2026, 12:45 | 639.27 | 635.02 |
| May 3, 2026, 12:30 | 639.18 | 635.04 |
| May 3, 2026, 12:15 | 639.18 | 635.02 |
| May 3, 2026, 12:00 | 639.18 | 635.02 |
| May 3, 2026, 11:45 | 639.14 | 635.00 |
| May 3, 2026, 11:30 | 639.12 | 635.00 |
| May 3, 2026, 11:15 | 639.09 | 635.00 |
| May 3, 2026, 11:00 | 639.06 | 634.99 |
| May 3, 2026, 10:45 | 639.09 | 634.99 |
| May 3, 2026, 10:30 | 639.13 | 635.00 |
| May 3, 2026, 10:15 | 639.09 | 635.00 |
| May 3, 2026, 10:00 | 639.12 | 635.00 |
| May 3, 2026, 09:45 | 639.14 | 634.99 |
| May 3, 2026, 09:30 | 639.15 | 635.00 |
| May 3, 2026, 09:15 | 639.15 | 634.99 |
| May 3, 2026, 09:00 | 639.14 | 635.00 |
| May 3, 2026, 08:45 | 639.13 | 634.99 |
| May 3, 2026, 08:30 | 639.12 | 634.99 |
| May 3, 2026, 08:15 | 639.13 | 635.00 |
| May 3, 2026, 08:00 | 639.16 | 634.98 |
| May 3, 2026, 07:45 | 639.08 | 634.97 |
| May 3, 2026, 07:30 | 639.09 | 634.99 |
| May 3, 2026, 07:15 | 639.11 | 634.99 |
| May 3, 2026, 07:00 | 639.09 | 634.98 |
| May 3, 2026, 06:45 | 639.11 | 634.99 |
| May 3, 2026, 06:30 | 639.12 | 634.98 |
| May 3, 2026, 06:15 | 639.09 | 634.97 |
| May 3, 2026, 06:00 | 639.08 | 634.97 |
| May 3, 2026, 05:45 | 639.07 | 634.97 |
| May 3, 2026, 05:30 | 639.09 | 634.97 |
| May 3, 2026, 05:15 | 639.06 | 634.97 |
| May 3, 2026, 05:00 | 639.06 | 634.98 |
| May 3, 2026, 04:45 | 639.09 | 634.97 |
| May 3, 2026, 04:30 | 639.09 | 634.97 |
| May 3, 2026, 04:15 | 639.08 | 634.91 |
| May 3, 2026, 04:00 | 639.11 | 634.88 |
| May 3, 2026, 03:45 | 639.04 | 634.91 |
| May 3, 2026, 03:30 | 639.09 | 634.96 |
| May 3, 2026, 03:15 | 639.08 | 634.97 |
| May 3, 2026, 03:00 | 639.09 | 634.98 |
| May 3, 2026, 02:45 | 639.09 | 634.97 |
| May 3, 2026, 02:30 | 639.09 | 634.98 |
| May 3, 2026, 02:15 | 639.12 | 634.98 |
| May 3, 2026, 02:00 | 639.09 | 634.96 |
| May 3, 2026, 01:45 | 639.08 | 634.96 |
| May 3, 2026, 01:30 | 639.08 | 634.96 |
| May 3, 2026, 01:15 | 639.11 | 634.95 |
| May 3, 2026, 01:00 | 639.07 | 634.95 |
| May 3, 2026, 00:45 | 639.11 | 634.93 |
| May 3, 2026, 00:30 | 639.11 | 634.96 |
| May 3, 2026, 00:15 | 639.08 | 634.96 |
| May 2, 2026, 24:00 | 639.13 | 634.96 |
| May 2, 2026, 23:45 | 639.06 | 634.97 |
| May 2, 2026, 23:30 | 639.13 | 634.95 |
| May 2, 2026, 23:15 | 639.05 | 634.93 |
| May 2, 2026, 23:00 | 639.09 | 634.93 |
| May 2, 2026, 22:45 | 639.13 | 634.93 |
| May 2, 2026, 22:30 | 639.08 | 634.93 |
| May 2, 2026, 22:15 | 639.09 | 634.93 |
| May 2, 2026, 22:00 | 639.08 | 634.93 |
| May 2, 2026, 21:45 | 639.08 | 634.93 |
| May 2, 2026, 21:30 | 639.08 | 634.93 |
| May 2, 2026, 21:15 | 639.08 | 634.93 |
| May 2, 2026, 21:00 | 639.12 | 634.96 |
| May 2, 2026, 20:45 | 639.11 | 634.91 |
| May 2, 2026, 20:30 | 639.09 | 634.91 |
| May 2, 2026, 20:15 | 639.06 | 634.91 |
| May 2, 2026, 20:00 | 639.08 | 634.91 |
| May 2, 2026, 19:45 | 639.11 | 634.91 |
| May 2, 2026, 19:30 | 639.06 | 634.90 |
| May 2, 2026, 19:15 | 639.09 | 634.91 |
| May 2, 2026, 19:00 | 639.07 | 634.91 |
| May 2, 2026, 18:45 | 639.09 | 634.90 |
| May 2, 2026, 18:30 | 639.08 | 634.90 |
| May 2, 2026, 18:15 | 639.08 | 634.90 |
| May 2, 2026, 18:00 | 639.07 | 634.90 |
| May 2, 2026, 17:45 | 639.11 | 634.90 |
| May 2, 2026, 17:30 | 639.08 | 634.90 |
| May 2, 2026, 17:15 | 639.08 | 634.90 |
| May 2, 2026, 17:00 | 639.07 | 634.89 |
| May 2, 2026, 16:45 | 639.09 | 634.89 |
| May 2, 2026, 16:30 | 639.08 | 634.89 |
| May 2, 2026, 16:15 | 639.08 | 634.89 |
| May 2, 2026, 16:00 | 639.06 | 634.88 |
| May 2, 2026, 15:45 | 639.06 | 634.88 |
| May 2, 2026, 15:30 | 639.06 | 634.88 |
| May 2, 2026, 15:15 | 639.06 | 634.88 |
| May 2, 2026, 15:00 | 639.06 | 634.87 |
| May 2, 2026, 14:45 | 639.06 | 634.87 |
| May 2, 2026, 14:30 | 639.07 | 634.87 |
| May 2, 2026, 14:15 | 639.06 | 634.87 |
| May 2, 2026, 14:00 | 639.04 | 634.86 |
| May 2, 2026, 13:45 | 639.03 | 634.83 |
| May 2, 2026, 13:30 | 639.06 | 634.81 |
| May 2, 2026, 13:15 | 639.05 | 634.81 |
| May 2, 2026, 13:00 | 639.07 | 634.81 |
| May 2, 2026, 12:45 | 639.06 | 634.80 |
| May 2, 2026, 12:30 | 639.05 | 634.81 |
| May 2, 2026, 12:15 | 639.04 | 634.80 |
| May 2, 2026, 12:00 | 639.06 | 634.80 |
| May 2, 2026, 11:45 | 639.05 | 634.79 |
| May 2, 2026, 11:30 | 639.05 | 634.80 |
| May 2, 2026, 11:15 | 639.05 | 634.80 |
| May 2, 2026, 11:00 | 639.06 | 634.80 |
| May 2, 2026, 10:45 | 639.06 | 634.80 |
| May 2, 2026, 10:30 | 639.04 | 634.80 |
| May 2, 2026, 10:15 | 639.00 | 634.80 |
| May 2, 2026, 10:00 | 639.04 | 634.79 |
| May 2, 2026, 09:45 | 639.06 | 634.80 |
| May 2, 2026, 09:30 | 639.05 | 634.79 |
| May 2, 2026, 09:15 | 639.05 | 634.79 |
| May 2, 2026, 09:00 | 639.06 | 634.79 |
| May 2, 2026, 08:45 | 639.06 | 634.79 |
| May 2, 2026, 08:30 | 639.04 | 634.79 |
| May 2, 2026, 08:15 | 639.02 | 634.79 |
| May 2, 2026, 08:00 | 639.03 | 634.79 |
| May 2, 2026, 07:45 | 639.03 | 634.79 |
| May 2, 2026, 07:30 | 639.05 | 634.79 |
| May 2, 2026, 07:15 | 639.02 | 634.79 |
| May 2, 2026, 07:00 | 639.04 | 634.79 |
| May 2, 2026, 06:45 | 639.04 | 634.79 |
| May 2, 2026, 06:30 | 639.04 | 634.79 |
| May 2, 2026, 06:15 | 639.03 | 634.79 |
| May 2, 2026, 06:00 | 639.04 | 634.78 |
| May 2, 2026, 05:45 | 639.03 | 634.79 |
| May 2, 2026, 05:30 | 639.04 | 634.78 |
| May 2, 2026, 05:15 | 639.03 | 634.78 |
| May 2, 2026, 05:00 | 639.03 | 634.79 |
| May 2, 2026, 04:45 | 639.03 | 634.78 |
| May 2, 2026, 04:30 | 639.00 | 634.78 |
| May 2, 2026, 04:15 | 639.00 | 634.78 |
| May 2, 2026, 04:00 | 639.03 | 634.78 |
| May 2, 2026, 03:45 | 639.00 | 634.78 |
| May 2, 2026, 03:30 | 639.02 | 634.78 |
| May 2, 2026, 03:15 | 639.04 | 634.78 |
| May 2, 2026, 03:00 | 639.18 | 634.78 |
| May 2, 2026, 02:45 | 639.02 | 634.77 |
| May 2, 2026, 02:30 | 639.02 | 634.78 |
| May 2, 2026, 02:15 | 639.03 | 634.78 |
| May 2, 2026, 02:00 | 639.03 | 634.75 |
| May 2, 2026, 01:45 | 639.02 | 634.75 |
| May 2, 2026, 01:30 | 639.04 | 634.77 |
| May 2, 2026, 01:15 | 639.03 | 634.75 |
| May 2, 2026, 01:00 | 639.04 | 634.78 |
| May 2, 2026, 00:45 | 639.05 | 634.78 |
| May 2, 2026, 00:30 | 639.06 | 634.77 |
| May 2, 2026, 00:15 | 639.03 | 634.77 |
| May 1, 2026, 24:00 | 639.04 | 634.75 |
| May 1, 2026, 23:45 | 639.04 | 634.75 |
| May 1, 2026, 23:30 | 639.03 | 634.75 |
| May 1, 2026, 23:15 | 639.03 | 634.75 |
| May 1, 2026, 23:00 | 639.04 | 634.75 |
| May 1, 2026, 22:45 | 639.04 | 634.75 |
| May 1, 2026, 22:30 | 639.03 | 634.75 |
| May 1, 2026, 22:15 | 639.04 | 634.75 |
| May 1, 2026, 22:00 | 639.03 | 634.75 |
| May 1, 2026, 21:45 | 639.03 | 634.75 |
| May 1, 2026, 21:30 | 639.04 | 634.75 |
| May 1, 2026, 21:15 | 639.03 | 634.75 |
| May 1, 2026, 21:00 | 639.02 | 634.75 |
| May 1, 2026, 20:45 | 639.06 | 634.75 |
| May 1, 2026, 20:30 | 639.18 | 634.75 |
| May 1, 2026, 20:15 | 639.05 | 634.75 |
| May 1, 2026, 20:00 | 639.05 | 634.75 |
| May 1, 2026, 19:45 | 639.00 | 634.75 |
| May 1, 2026, 19:30 | 639.04 | 634.75 |
| May 1, 2026, 19:15 | 639.04 | 634.73 |
| May 1, 2026, 19:00 | 639.03 | 634.74 |
| May 1, 2026, 18:45 | 639.05 | 634.74 |
| May 1, 2026, 18:30 | 639.04 | 634.75 |
| May 1, 2026, 18:15 | 639.04 | 634.75 |
| May 1, 2026, 18:00 | 639.04 | 634.77 |
| May 1, 2026, 17:45 | 639.04 | 634.75 |
| May 1, 2026, 17:30 | 639.00 | 634.75 |
| May 1, 2026, 17:15 | 639.03 | 634.75 |
| May 1, 2026, 17:00 | 639.02 | 634.74 |
| May 1, 2026, 16:45 | 639.04 | 634.74 |
| May 1, 2026, 16:30 | 639.02 | 634.74 |
| May 1, 2026, 16:15 | 639.02 | 634.74 |
| May 1, 2026, 16:00 | 639.02 | 634.74 |
| May 1, 2026, 15:45 | 639.02 | 634.74 |
| May 1, 2026, 15:30 | 639.00 | 634.74 |
| May 1, 2026, 15:15 | 639.00 | 634.74 |
| May 1, 2026, 15:00 | 639.02 | 634.73 |
| May 1, 2026, 14:45 | 639.03 | 634.73 |
| May 1, 2026, 14:30 | 639.02 | 634.73 |
| May 1, 2026, 14:15 | 639.02 | 634.73 |
| May 1, 2026, 14:00 | 639.00 | 634.72 |
| May 1, 2026, 13:45 | 639.00 | 634.72 |
| May 1, 2026, 13:30 | 639.02 | 634.68 |
| May 1, 2026, 13:15 | 639.00 | 634.68 |
| May 1, 2026, 13:00 | 639.00 | 634.68 |
| May 1, 2026, 12:45 | 639.00 | 634.68 |
| May 1, 2026, 12:30 | 639.00 | 634.68 |
| May 1, 2026, 12:15 | 639.00 | 634.68 |
| May 1, 2026, 12:00 | 639.00 | 634.68 |
| May 1, 2026, 11:45 | 639.00 | 634.68 |
| May 1, 2026, 11:30 | 639.00 | 634.68 |
| May 1, 2026, 11:15 | 638.99 | 634.68 |
| May 1, 2026, 11:00 | 638.99 | 634.68 |
| May 1, 2026, 10:45 | 639.00 | 634.68 |
| May 1, 2026, 10:30 | 639.00 | 634.68 |
| May 1, 2026, 10:15 | 638.98 | 634.68 |
| May 1, 2026, 10:00 | 638.98 | 634.68 |
| May 1, 2026, 09:45 | 638.97 | 634.68 |
| May 1, 2026, 09:30 | 638.98 | 634.68 |
| May 1, 2026, 09:15 | 638.97 | 634.66 |
| May 1, 2026, 09:00 | 638.97 | 634.68 |
| May 1, 2026, 08:45 | 638.96 | 634.68 |
| May 1, 2026, 08:30 | 638.96 | 634.68 |
| May 1, 2026, 08:15 | 638.96 | 634.68 |
| May 1, 2026, 08:00 | 638.99 | 634.68 |
| May 1, 2026, 07:45 | 638.93 | 634.66 |
| May 1, 2026, 07:30 | 638.93 | 634.66 |
| May 1, 2026, 07:15 | 638.95 | 634.66 |
| Date/Time (UTC) | LockDam_07 Flow cfs |
|---|---|
| May 8, 2026, 06:00 | 61000 |
| May 8, 2026, 05:45 | 60600 |
| May 8, 2026, 05:30 | 60500 |
| May 8, 2026, 05:15 | 60800 |
| May 8, 2026, 05:00 | 60700 |
| May 8, 2026, 04:45 | 60900 |
| May 8, 2026, 04:30 | 60900 |
| May 8, 2026, 04:15 | 60900 |
| May 8, 2026, 04:00 | 60500 |
| May 8, 2026, 03:45 | 60500 |
| May 8, 2026, 03:30 | 60900 |
| May 8, 2026, 03:15 | 60300 |
| May 8, 2026, 03:00 | 60400 |
| May 8, 2026, 02:45 | 60200 |
| May 8, 2026, 02:30 | 60400 |
| May 8, 2026, 02:15 | 60500 |
| May 8, 2026, 02:00 | 60300 |
| May 8, 2026, 01:45 | 59500 |
| May 8, 2026, 01:30 | 63700 |
| May 8, 2026, 01:15 | 64000 |
| May 8, 2026, 01:00 | 63900 |
| May 8, 2026, 00:45 | 64000 |
| May 8, 2026, 00:30 | 64200 |
| May 8, 2026, 00:15 | 64300 |
| May 7, 2026, 24:00 | 64200 |
| May 7, 2026, 23:45 | 64400 |
| May 7, 2026, 23:30 | 64200 |
| May 7, 2026, 23:15 | 64400 |
| May 7, 2026, 23:00 | 64400 |
| May 7, 2026, 22:45 | 64600 |
| May 7, 2026, 22:30 | 64100 |
| May 7, 2026, 22:15 | 64700 |
| May 7, 2026, 22:00 | 64700 |
| May 7, 2026, 21:45 | 64700 |
| May 7, 2026, 21:30 | 64700 |
| May 7, 2026, 21:15 | 64800 |
| May 7, 2026, 21:00 | 64700 |
| May 7, 2026, 20:45 | 64500 |
| May 7, 2026, 20:30 | 64300 |
| May 7, 2026, 20:15 | 63400 |
| May 7, 2026, 20:00 | 64600 |
| May 7, 2026, 19:45 | 65000 |
| May 7, 2026, 19:30 | 63600 |
| May 7, 2026, 19:15 | 65000 |
| May 7, 2026, 19:00 | 65000 |
| May 7, 2026, 18:45 | 65000 |
| May 7, 2026, 18:30 | 64500 |
| May 7, 2026, 18:15 | 65200 |
| May 7, 2026, 18:00 | 65000 |
| May 7, 2026, 17:45 | 64700 |
| May 7, 2026, 17:30 | 64500 |
| May 7, 2026, 17:15 | 64700 |
| May 7, 2026, 17:00 | 64700 |
| May 7, 2026, 16:45 | 64600 |
| May 7, 2026, 16:30 | 65000 |
| May 7, 2026, 16:15 | 64600 |
| May 7, 2026, 16:00 | 64800 |
| May 7, 2026, 15:45 | 63600 |
| May 7, 2026, 15:30 | 65000 |
| May 7, 2026, 15:15 | 64900 |
| May 7, 2026, 15:00 | 64900 |
| May 7, 2026, 14:45 | 64900 |
| May 7, 2026, 14:30 | 65000 |
| May 7, 2026, 14:15 | 66200 |
| May 7, 2026, 14:00 | 64900 |
| May 7, 2026, 13:45 | 65000 |
| May 7, 2026, 13:30 | 65000 |
| May 7, 2026, 13:15 | 64700 |
| May 7, 2026, 13:00 | 64900 |
| May 7, 2026, 12:45 | 65100 |
| May 7, 2026, 12:30 | 65300 |
| May 7, 2026, 12:15 | 64800 |
| May 7, 2026, 12:00 | 63900 |
| May 7, 2026, 11:45 | 64800 |
| May 7, 2026, 11:30 | 64800 |
| May 7, 2026, 11:15 | 64600 |
| May 7, 2026, 11:00 | 64800 |
| May 7, 2026, 10:45 | 65000 |
| May 7, 2026, 10:30 | 65100 |
| May 7, 2026, 10:15 | 64800 |
| May 7, 2026, 10:00 | 64600 |
| May 7, 2026, 09:45 | 64900 |
| May 7, 2026, 09:30 | 65000 |
| May 7, 2026, 09:15 | 64600 |
| May 7, 2026, 09:00 | 65000 |
| May 7, 2026, 08:45 | 64600 |
| May 7, 2026, 08:30 | 65000 |
| May 7, 2026, 08:15 | 64500 |
| May 7, 2026, 08:00 | 64700 |
| May 7, 2026, 07:45 | 64700 |
| May 7, 2026, 07:30 | 64200 |
| May 7, 2026, 07:15 | 64500 |
| May 7, 2026, 07:00 | 64700 |
| May 7, 2026, 06:45 | 64200 |
| May 7, 2026, 06:30 | 64700 |
| May 7, 2026, 06:15 | 64200 |
| May 7, 2026, 06:00 | 64500 |
| May 7, 2026, 05:45 | 64500 |
| May 7, 2026, 05:30 | 64500 |
| May 7, 2026, 05:15 | 64400 |
| May 7, 2026, 05:00 | 64800 |
| May 7, 2026, 04:45 | 64700 |
| May 7, 2026, 04:30 | 64500 |
| May 7, 2026, 04:15 | 64500 |
| May 7, 2026, 04:00 | 64200 |
| May 7, 2026, 03:45 | 64800 |
| May 7, 2026, 03:30 | 64000 |
| May 7, 2026, 03:15 | 63500 |
| May 7, 2026, 03:00 | 64000 |
| May 7, 2026, 02:45 | 64800 |
| May 7, 2026, 02:30 | 64200 |
| May 7, 2026, 02:15 | 64700 |
| May 7, 2026, 02:00 | 64800 |
| May 7, 2026, 01:45 | 64800 |
| May 7, 2026, 01:30 | 64700 |
| May 7, 2026, 01:15 | 64200 |
| May 7, 2026, 01:00 | 64500 |
| May 7, 2026, 00:45 | 64800 |
| May 7, 2026, 00:30 | 65100 |
| May 7, 2026, 00:15 | 64900 |
| May 6, 2026, 24:00 | 65400 |
| May 6, 2026, 23:45 | 64600 |
| May 6, 2026, 23:30 | 64400 |
| May 6, 2026, 23:15 | 64600 |
| May 6, 2026, 23:00 | 64600 |
| May 6, 2026, 22:45 | 64400 |
| May 6, 2026, 22:30 | 64700 |
| May 6, 2026, 22:15 | 64400 |
| May 6, 2026, 22:00 | 64400 |
| May 6, 2026, 21:45 | 64400 |
| May 6, 2026, 21:30 | 64400 |
| May 6, 2026, 21:15 | 64100 |
| May 6, 2026, 21:00 | 64400 |
| May 6, 2026, 20:45 | 64400 |
| May 6, 2026, 20:30 | 64600 |
| May 6, 2026, 20:15 | 64100 |
| May 6, 2026, 20:00 | 64100 |
| May 6, 2026, 19:45 | 63900 |
| May 6, 2026, 19:30 | 63600 |
| May 6, 2026, 19:15 | 63600 |
| May 6, 2026, 19:00 | 63500 |
| May 6, 2026, 18:45 | 63600 |
| May 6, 2026, 18:30 | 63800 |
| May 6, 2026, 18:15 | 62600 |
| May 6, 2026, 18:00 | 63600 |
| May 6, 2026, 17:45 | 63600 |
| May 6, 2026, 17:30 | 63300 |
| May 6, 2026, 17:15 | 62900 |
| May 6, 2026, 17:00 | 63100 |
| May 6, 2026, 16:45 | 62600 |
| May 6, 2026, 16:30 | 67600 |
| May 6, 2026, 16:15 | 67300 |
| May 6, 2026, 16:00 | 67800 |
| May 6, 2026, 15:45 | 67800 |
| May 6, 2026, 15:30 | 67400 |
| May 6, 2026, 15:15 | 67400 |
| May 6, 2026, 15:00 | 69400 |
| May 6, 2026, 14:45 | 67700 |
| May 6, 2026, 14:30 | 67900 |
| May 6, 2026, 14:15 | 68100 |
| May 6, 2026, 14:00 | 68200 |
| May 6, 2026, 13:45 | 67900 |
| May 6, 2026, 13:30 | 68300 |
| May 6, 2026, 13:15 | 67700 |
| May 6, 2026, 13:00 | 68000 |
| May 6, 2026, 12:45 | 68000 |
| May 6, 2026, 12:30 | 68100 |
| May 6, 2026, 12:15 | 67900 |
| May 6, 2026, 12:00 | 67900 |
| May 6, 2026, 11:45 | 67900 |
| May 6, 2026, 11:30 | 67700 |
| May 6, 2026, 11:15 | 67700 |
| May 6, 2026, 11:00 | 67700 |
| May 6, 2026, 10:45 | 67700 |
| May 6, 2026, 10:30 | 68000 |
| May 6, 2026, 10:15 | 67900 |
| May 6, 2026, 10:00 | 67700 |
| May 6, 2026, 09:45 | 67700 |
| May 6, 2026, 09:30 | 67700 |
| May 6, 2026, 09:15 | 67900 |
| May 6, 2026, 09:00 | 67900 |
| May 6, 2026, 08:45 | 67900 |
| May 6, 2026, 08:30 | 67700 |
| May 6, 2026, 08:15 | 67600 |
| May 6, 2026, 08:00 | 67600 |
| May 6, 2026, 07:45 | 67900 |
| May 6, 2026, 07:30 | 67700 |
| May 6, 2026, 07:15 | 67900 |
| May 6, 2026, 07:00 | 68000 |
| May 6, 2026, 06:45 | 68100 |
| May 6, 2026, 06:30 | 68300 |
| May 6, 2026, 06:15 | 67900 |
| May 6, 2026, 06:00 | 67800 |
| May 6, 2026, 05:45 | 67800 |
| May 6, 2026, 05:30 | 67800 |
| May 6, 2026, 05:15 | 67900 |
| May 6, 2026, 05:00 | 67900 |
| May 6, 2026, 04:45 | 67600 |
| May 6, 2026, 04:30 | 67600 |
| May 6, 2026, 04:15 | 67800 |
| May 6, 2026, 04:00 | 67600 |
| May 6, 2026, 03:45 | 67800 |
| May 6, 2026, 03:30 | 67400 |
| May 6, 2026, 03:15 | 67400 |
| May 6, 2026, 03:00 | 67200 |
| May 6, 2026, 02:45 | 67600 |
| May 6, 2026, 02:30 | 67400 |
| May 6, 2026, 02:15 | 67600 |
| May 6, 2026, 02:00 | 67900 |
| May 6, 2026, 01:45 | 67300 |
| May 6, 2026, 01:30 | 67800 |
| May 6, 2026, 01:15 | 67600 |
| May 6, 2026, 01:00 | 67400 |
| May 6, 2026, 00:45 | 66600 |
| May 6, 2026, 00:30 | 67900 |
| May 6, 2026, 00:15 | 67800 |
| May 5, 2026, 24:00 | 68000 |
| May 5, 2026, 23:45 | 67800 |
| May 5, 2026, 23:30 | 68300 |
| May 5, 2026, 23:15 | 69100 |
| May 5, 2026, 23:00 | 68000 |
| May 5, 2026, 22:45 | 68000 |
| May 5, 2026, 22:30 | 67700 |
| May 5, 2026, 22:15 | 68700 |
| May 5, 2026, 22:00 | 67600 |
| May 5, 2026, 21:45 | 68300 |
| May 5, 2026, 21:30 | 68100 |
| May 5, 2026, 21:15 | 68100 |
| May 5, 2026, 21:00 | 68300 |
| May 5, 2026, 20:45 | 67300 |
| May 5, 2026, 20:30 | 67900 |
| May 5, 2026, 20:15 | 68100 |
| May 5, 2026, 20:00 | 68500 |
| May 5, 2026, 19:45 | 67900 |
| May 5, 2026, 19:30 | 67900 |
| May 5, 2026, 19:15 | 66800 |
| May 5, 2026, 19:00 | 67600 |
| May 5, 2026, 18:45 | 68500 |
| May 5, 2026, 18:30 | 67600 |
| May 5, 2026, 18:15 | 67600 |
| May 5, 2026, 18:00 | 67600 |
| May 5, 2026, 17:45 | 67800 |
| May 5, 2026, 17:30 | 67800 |
| May 5, 2026, 17:15 | 67700 |
| May 5, 2026, 17:00 | 68200 |
| May 5, 2026, 16:45 | 68500 |
| May 5, 2026, 16:30 | 67900 |
| May 5, 2026, 16:15 | 67300 |
| May 5, 2026, 16:00 | 68200 |
| May 5, 2026, 15:45 | 68100 |
| May 5, 2026, 15:30 | 67600 |
| May 5, 2026, 15:15 | 67600 |
| May 5, 2026, 15:00 | 67900 |
| May 5, 2026, 14:45 | 68100 |
| May 5, 2026, 14:30 | 67600 |
| May 5, 2026, 14:15 | 67700 |
| May 5, 2026, 14:00 | 67400 |
| May 5, 2026, 13:45 | 67700 |
| May 5, 2026, 13:30 | 67200 |
| May 5, 2026, 13:15 | 67000 |
| May 5, 2026, 13:00 | 68400 |
| May 5, 2026, 12:45 | 68000 |
| May 5, 2026, 12:30 | 68300 |
| May 5, 2026, 12:15 | 68900 |
| May 5, 2026, 12:00 | 68000 |
| May 5, 2026, 11:45 | 68100 |
| May 5, 2026, 11:30 | 68100 |
| May 5, 2026, 11:15 | 68000 |
| May 5, 2026, 11:00 | 68300 |
| May 5, 2026, 10:45 | 68200 |
| May 5, 2026, 10:30 | 68300 |
| May 5, 2026, 10:15 | 68000 |
| May 5, 2026, 10:00 | 68300 |
| May 5, 2026, 09:45 | 68300 |
| May 5, 2026, 09:30 | 68000 |
| May 5, 2026, 09:15 | 68200 |
| May 5, 2026, 09:00 | 68300 |
| May 5, 2026, 08:45 | 68000 |
| May 5, 2026, 08:30 | 68200 |
| May 5, 2026, 08:15 | 68300 |
| May 5, 2026, 08:00 | 68200 |
| May 5, 2026, 07:45 | 68400 |
| May 5, 2026, 07:30 | 68200 |
| May 5, 2026, 07:15 | 68200 |
| May 5, 2026, 07:00 | 68300 |
| May 5, 2026, 06:45 | 68300 |
| May 5, 2026, 06:30 | 68200 |
| May 5, 2026, 06:15 | 68300 |
| May 5, 2026, 06:00 | 68300 |
| May 5, 2026, 05:45 | 68700 |
| May 5, 2026, 05:30 | 68300 |
| May 5, 2026, 05:15 | 68700 |
| May 5, 2026, 05:00 | 68600 |
| May 5, 2026, 04:45 | 69100 |
| May 5, 2026, 04:30 | 69400 |
| May 5, 2026, 04:15 | 68800 |
| May 5, 2026, 04:00 | 68800 |
| May 5, 2026, 03:45 | 68400 |
| May 5, 2026, 03:30 | 68000 |
| May 5, 2026, 03:15 | 68400 |
| May 5, 2026, 03:00 | 68800 |
| May 5, 2026, 02:45 | 68800 |
| May 5, 2026, 02:30 | 69200 |
| May 5, 2026, 02:15 | 68700 |
| May 5, 2026, 02:00 | 68900 |
| May 5, 2026, 01:45 | 69200 |
| May 5, 2026, 01:30 | 69300 |
| May 5, 2026, 01:15 | 69800 |
| May 5, 2026, 01:00 | 68700 |
| May 5, 2026, 00:45 | 68800 |
| May 5, 2026, 00:30 | 69900 |
| May 5, 2026, 00:15 | 68900 |
| May 4, 2026, 24:00 | 68600 |
| May 4, 2026, 23:45 | 69100 |
| May 4, 2026, 23:30 | 68700 |
| May 4, 2026, 23:15 | 68700 |
| May 4, 2026, 23:00 | 68400 |
| May 4, 2026, 22:45 | 68700 |
| May 4, 2026, 22:30 | 68700 |
| May 4, 2026, 22:15 | 68400 |
| May 4, 2026, 22:00 | 68700 |
| May 4, 2026, 21:45 | 68900 |
| May 4, 2026, 21:30 | 68600 |
| May 4, 2026, 21:15 | 68800 |
| May 4, 2026, 21:00 | 68400 |
| May 4, 2026, 20:45 | 69100 |
| May 4, 2026, 20:30 | 68800 |
| May 4, 2026, 20:15 | 69200 |
| May 4, 2026, 20:00 | 68800 |
| May 4, 2026, 19:45 | 69200 |
| May 4, 2026, 19:30 | 69100 |
| May 4, 2026, 19:15 | 68600 |
| May 4, 2026, 19:00 | 69500 |
| May 4, 2026, 18:45 | 68800 |
| May 4, 2026, 18:30 | 68600 |
| May 4, 2026, 18:15 | 69100 |
| May 4, 2026, 18:00 | 69100 |
| May 4, 2026, 17:45 | 69100 |
| May 4, 2026, 17:30 | 68700 |
| May 4, 2026, 17:15 | 68600 |
| May 4, 2026, 17:00 | 69000 |
| May 4, 2026, 16:45 | 68700 |
| May 4, 2026, 16:30 | 69400 |
| May 4, 2026, 16:15 | 68200 |
| May 4, 2026, 16:00 | 68900 |
| May 4, 2026, 15:45 | 68700 |
| May 4, 2026, 15:30 | 68200 |
| May 4, 2026, 15:15 | 69400 |
| May 4, 2026, 15:00 | 69400 |
| May 4, 2026, 14:45 | 68200 |
| May 4, 2026, 14:30 | 68200 |
| May 4, 2026, 14:15 | 67700 |
| May 4, 2026, 14:00 | 60600 |
| May 4, 2026, 13:45 | 67800 |
| May 4, 2026, 13:30 | 67900 |
| May 4, 2026, 13:15 | 67700 |
| May 4, 2026, 13:00 | 68200 |
| May 4, 2026, 12:45 | 68100 |
| May 4, 2026, 12:30 | 68300 |
| May 4, 2026, 12:15 | 68300 |
| May 4, 2026, 12:00 | 67600 |
| May 4, 2026, 11:45 | 68200 |
| May 4, 2026, 11:30 | 68100 |
| May 4, 2026, 11:15 | 68500 |
| May 4, 2026, 11:00 | 68600 |
| May 4, 2026, 10:45 | 68600 |
| May 4, 2026, 10:30 | 68100 |
| May 4, 2026, 10:15 | 68100 |
| May 4, 2026, 10:00 | 68000 |
| May 4, 2026, 09:45 | 68200 |
| May 4, 2026, 09:30 | 68300 |
| May 4, 2026, 09:15 | 67600 |
| May 4, 2026, 09:00 | 68900 |
| May 4, 2026, 08:45 | 68200 |
| May 4, 2026, 08:30 | 68100 |
| May 4, 2026, 08:15 | 68600 |
| May 4, 2026, 08:00 | 68300 |
| May 4, 2026, 07:45 | 68300 |
| May 4, 2026, 07:30 | 68700 |
| May 4, 2026, 07:15 | 68700 |
| May 4, 2026, 07:00 | 68600 |
| May 4, 2026, 06:45 | 68900 |
| May 4, 2026, 06:30 | 68900 |
| May 4, 2026, 06:15 | 69100 |
| May 4, 2026, 06:00 | 68900 |
| May 4, 2026, 05:45 | 68600 |
| May 4, 2026, 05:30 | 69100 |
| May 4, 2026, 05:15 | 70000 |
| May 4, 2026, 05:00 | 68600 |
| May 4, 2026, 04:45 | 69100 |
| May 4, 2026, 04:30 | 69100 |
| May 4, 2026, 04:15 | 68600 |
| May 4, 2026, 04:00 | 69200 |
| May 4, 2026, 03:45 | 68900 |
| May 4, 2026, 03:30 | 69200 |
| May 4, 2026, 03:15 | 69300 |
| May 4, 2026, 03:00 | 69700 |
| May 4, 2026, 02:45 | 69200 |
| May 4, 2026, 02:30 | 68500 |
| May 4, 2026, 02:15 | 68700 |
| May 4, 2026, 02:00 | 69500 |
| May 4, 2026, 01:45 | 68600 |
| May 4, 2026, 01:30 | 70000 |
| May 4, 2026, 01:15 | 69100 |
| May 4, 2026, 01:00 | 69500 |
| May 4, 2026, 00:45 | 69200 |
| May 4, 2026, 00:30 | 69200 |
| May 4, 2026, 00:15 | 69200 |
| May 3, 2026, 24:00 | 69500 |
| May 3, 2026, 23:45 | 69500 |
| May 3, 2026, 23:30 | 69500 |
| May 3, 2026, 23:15 | 69500 |
| May 3, 2026, 23:00 | 69500 |
| May 3, 2026, 22:45 | 69600 |
| May 3, 2026, 22:30 | 69600 |
| May 3, 2026, 22:15 | 69600 |
| May 3, 2026, 22:00 | 70200 |
| May 3, 2026, 21:45 | 69700 |
| May 3, 2026, 21:30 | 70800 |
| May 3, 2026, 21:15 | 70000 |
| May 3, 2026, 21:00 | 70100 |
| May 3, 2026, 20:45 | 70400 |
| May 3, 2026, 20:30 | 70100 |
| May 3, 2026, 20:15 | 70000 |
| May 3, 2026, 20:00 | 69900 |
| May 3, 2026, 19:45 | 69900 |
| May 3, 2026, 19:30 | 69700 |
| May 3, 2026, 19:15 | 69800 |
| May 3, 2026, 19:00 | 69800 |
| May 3, 2026, 18:45 | 70000 |
| May 3, 2026, 18:30 | 69600 |
| May 3, 2026, 18:15 | 70000 |
| May 3, 2026, 18:00 | 69900 |
| May 3, 2026, 17:45 | 69900 |
| May 3, 2026, 17:30 | 70300 |
| May 3, 2026, 17:15 | 70400 |
| May 3, 2026, 17:00 | 69800 |
| May 3, 2026, 16:45 | 70600 |
| May 3, 2026, 16:30 | 70400 |
| May 3, 2026, 16:15 | 70300 |
| May 3, 2026, 16:00 | 70200 |
| May 3, 2026, 15:45 | 70400 |
| May 3, 2026, 15:30 | 72600 |
| May 3, 2026, 15:15 | 71600 |
| May 3, 2026, 15:00 | 66800 |
| May 3, 2026, 14:45 | 66700 |
| May 3, 2026, 14:30 | 66400 |
| May 3, 2026, 14:15 | 66000 |
| May 3, 2026, 14:00 | 66000 |
| May 3, 2026, 13:45 | 66200 |
| May 3, 2026, 13:30 | 65900 |
| May 3, 2026, 13:15 | 66100 |
| May 3, 2026, 13:00 | 66500 |
| May 3, 2026, 12:45 | 67700 |
| May 3, 2026, 12:30 | 66400 |
| May 3, 2026, 12:15 | 66600 |
| May 3, 2026, 12:00 | 66600 |
| May 3, 2026, 11:45 | 66200 |
| May 3, 2026, 11:30 | 66000 |
| May 3, 2026, 11:15 | 65700 |
| May 3, 2026, 11:00 | 65400 |
| May 3, 2026, 10:45 | 65700 |
| May 3, 2026, 10:30 | 66100 |
| May 3, 2026, 10:15 | 65700 |
| May 3, 2026, 10:00 | 66000 |
| May 3, 2026, 09:45 | 66300 |
| May 3, 2026, 09:30 | 66400 |
| May 3, 2026, 09:15 | 66400 |
| May 3, 2026, 09:00 | 66200 |
| May 3, 2026, 08:45 | 66200 |
| May 3, 2026, 08:30 | 66100 |
| May 3, 2026, 08:15 | 66100 |
| May 3, 2026, 08:00 | 66700 |
| May 3, 2026, 07:45 | 65800 |
| May 3, 2026, 07:30 | 65700 |
| May 3, 2026, 07:15 | 66000 |
| May 3, 2026, 07:00 | 65800 |
| May 3, 2026, 06:45 | 66000 |
| May 3, 2026, 06:30 | 66200 |
| May 3, 2026, 06:15 | 65900 |
| May 3, 2026, 06:00 | 65800 |
| May 3, 2026, 05:45 | 65700 |
| May 3, 2026, 05:30 | 65900 |
| May 3, 2026, 05:15 | 65600 |
| May 3, 2026, 05:00 | 65500 |
| May 3, 2026, 04:45 | 65900 |
| May 3, 2026, 04:30 | 65900 |
| May 3, 2026, 04:15 | 66300 |
| May 3, 2026, 04:00 | 66900 |
| May 3, 2026, 03:45 | 65800 |
| May 3, 2026, 03:30 | 66000 |
| May 3, 2026, 03:15 | 65800 |
| May 3, 2026, 03:00 | 65800 |
| May 3, 2026, 02:45 | 65900 |
| May 3, 2026, 02:30 | 65800 |
| May 3, 2026, 02:15 | 66200 |
| May 3, 2026, 02:00 | 66000 |
| May 3, 2026, 01:45 | 65900 |
| May 3, 2026, 01:30 | 65900 |
| May 3, 2026, 01:15 | 66300 |
| May 3, 2026, 01:00 | 65800 |
| May 3, 2026, 00:45 | 66500 |
| May 3, 2026, 00:30 | 66200 |
| May 3, 2026, 00:15 | 65900 |
| May 2, 2026, 24:00 | 66500 |
| May 2, 2026, 23:45 | 65600 |
| May 2, 2026, 23:30 | 66500 |
| May 2, 2026, 23:15 | 65800 |
| May 2, 2026, 23:00 | 66200 |
| May 2, 2026, 22:45 | 66700 |
| May 2, 2026, 22:30 | 66100 |
| May 2, 2026, 22:15 | 66200 |
| May 2, 2026, 22:00 | 66100 |
| May 2, 2026, 21:45 | 66100 |
| May 2, 2026, 21:30 | 66100 |
| May 2, 2026, 21:15 | 66100 |
| May 2, 2026, 21:00 | 66300 |
| May 2, 2026, 20:45 | 66600 |
| May 2, 2026, 20:30 | 66400 |
| May 2, 2026, 20:15 | 66100 |
| May 2, 2026, 20:00 | 66300 |
| May 2, 2026, 19:45 | 66600 |
| May 2, 2026, 19:30 | 66100 |
| May 2, 2026, 19:15 | 66400 |
| May 2, 2026, 19:00 | 66200 |
| May 2, 2026, 18:45 | 66500 |
| May 2, 2026, 18:30 | 66400 |
| May 2, 2026, 18:15 | 66400 |
| May 2, 2026, 18:00 | 66300 |
| May 2, 2026, 17:45 | 66700 |
| May 2, 2026, 17:30 | 66400 |
| May 2, 2026, 17:15 | 66400 |
| May 2, 2026, 17:00 | 66300 |
| May 2, 2026, 16:45 | 66600 |
| May 2, 2026, 16:30 | 66500 |
| May 2, 2026, 16:15 | 66500 |
| May 2, 2026, 16:00 | 66300 |
| May 2, 2026, 15:45 | 66300 |
| May 2, 2026, 15:30 | 66300 |
| May 2, 2026, 15:15 | 66300 |
| May 2, 2026, 15:00 | 66400 |
| May 2, 2026, 14:45 | 66400 |
| May 2, 2026, 14:30 | 66500 |
| May 2, 2026, 14:15 | 66400 |
| May 2, 2026, 14:00 | 66200 |
| May 2, 2026, 13:45 | 66400 |
| May 2, 2026, 13:30 | 66900 |
| May 2, 2026, 13:15 | 64200 |
| May 2, 2026, 13:00 | 64400 |
| May 2, 2026, 12:45 | 64400 |
| May 2, 2026, 12:30 | 64200 |
| May 2, 2026, 12:15 | 64200 |
| May 2, 2026, 12:00 | 64400 |
| May 2, 2026, 11:45 | 64400 |
| May 2, 2026, 11:30 | 64300 |
| May 2, 2026, 11:15 | 64300 |
| May 2, 2026, 11:00 | 64400 |
| May 2, 2026, 10:45 | 64400 |
| May 2, 2026, 10:30 | 64200 |
| May 2, 2026, 10:15 | 63700 |
| May 2, 2026, 10:00 | 64200 |
| May 2, 2026, 09:45 | 64400 |
| May 2, 2026, 09:30 | 64400 |
| May 2, 2026, 09:15 | 64400 |
| May 2, 2026, 09:00 | 64500 |
| May 2, 2026, 08:45 | 64500 |
| May 2, 2026, 08:30 | 64200 |
| May 2, 2026, 08:15 | 64000 |
| May 2, 2026, 08:00 | 64100 |
| May 2, 2026, 07:45 | 64100 |
| May 2, 2026, 07:30 | 64400 |
| May 2, 2026, 07:15 | 64000 |
| May 2, 2026, 07:00 | 64200 |
| May 2, 2026, 06:45 | 64200 |
| May 2, 2026, 06:30 | 64200 |
| May 2, 2026, 06:15 | 64100 |
| May 2, 2026, 06:00 | 64300 |
| May 2, 2026, 05:45 | 64100 |
| May 2, 2026, 05:30 | 64300 |
| May 2, 2026, 05:15 | 64200 |
| May 2, 2026, 05:00 | 64100 |
| May 2, 2026, 04:45 | 64200 |
| May 2, 2026, 04:30 | 63900 |
| May 2, 2026, 04:15 | 63900 |
| May 2, 2026, 04:00 | 64200 |
| May 2, 2026, 03:45 | 63900 |
| May 2, 2026, 03:30 | 64100 |
| May 2, 2026, 03:15 | 64300 |
| May 2, 2026, 03:00 | 66000 |
| May 2, 2026, 02:45 | 64200 |
| May 2, 2026, 02:30 | 64100 |
| May 2, 2026, 02:15 | 64200 |
| May 2, 2026, 02:00 | 64500 |
| May 2, 2026, 01:45 | 64300 |
| May 2, 2026, 01:30 | 64400 |
| May 2, 2026, 01:15 | 64500 |
| May 2, 2026, 01:00 | 64300 |
| May 2, 2026, 00:45 | 64400 |
| May 2, 2026, 00:30 | 64600 |
| May 2, 2026, 00:15 | 64300 |
| May 1, 2026, 24:00 | 64600 |
| May 1, 2026, 23:45 | 64600 |
| May 1, 2026, 23:30 | 64500 |
| May 1, 2026, 23:15 | 64500 |
| May 1, 2026, 23:00 | 64600 |
| May 1, 2026, 22:45 | 64600 |
| May 1, 2026, 22:30 | 64500 |
| May 1, 2026, 22:15 | 64600 |
| May 1, 2026, 22:00 | 64500 |
| May 1, 2026, 21:45 | 64500 |
| May 1, 2026, 21:30 | 64600 |
| May 1, 2026, 21:15 | 64500 |
| May 1, 2026, 21:00 | 64300 |
| May 1, 2026, 20:45 | 64800 |
| May 1, 2026, 20:30 | 66200 |
| May 1, 2026, 20:15 | 64700 |
| May 1, 2026, 20:00 | 64700 |
| May 1, 2026, 19:45 | 64100 |
| May 1, 2026, 19:30 | 64600 |
| May 1, 2026, 19:15 | 64700 |
| May 1, 2026, 19:00 | 64500 |
| May 1, 2026, 18:45 | 64800 |
| May 1, 2026, 18:30 | 64600 |
| May 1, 2026, 18:15 | 64600 |
| May 1, 2026, 18:00 | 64400 |
| May 1, 2026, 17:45 | 64600 |
| May 1, 2026, 17:30 | 64100 |
| May 1, 2026, 17:15 | 64500 |
| May 1, 2026, 17:00 | 64400 |
| May 1, 2026, 16:45 | 64700 |
| May 1, 2026, 16:30 | 64400 |
| May 1, 2026, 16:15 | 64400 |
| May 1, 2026, 16:00 | 64400 |
| May 1, 2026, 15:45 | 64400 |
| May 1, 2026, 15:30 | 64200 |
| May 1, 2026, 15:15 | 64200 |
| May 1, 2026, 15:00 | 64500 |
| May 1, 2026, 14:45 | 64600 |
| May 1, 2026, 14:30 | 64500 |
| May 1, 2026, 14:15 | 64500 |
| May 1, 2026, 14:00 | 64400 |
| May 1, 2026, 13:45 | 64400 |
| May 1, 2026, 13:30 | 64900 |
| May 1, 2026, 13:15 | 63100 |
| May 1, 2026, 13:00 | 63100 |
| May 1, 2026, 12:45 | 63100 |
| May 1, 2026, 12:30 | 63100 |
| May 1, 2026, 12:15 | 63100 |
| May 1, 2026, 12:00 | 63100 |
| May 1, 2026, 11:45 | 63100 |
| May 1, 2026, 11:30 | 63100 |
| May 1, 2026, 11:15 | 63100 |
| May 1, 2026, 11:00 | 63100 |
| May 1, 2026, 10:45 | 63100 |
| May 1, 2026, 10:30 | 63100 |
| May 1, 2026, 10:15 | 63000 |
| May 1, 2026, 10:00 | 63000 |
| May 1, 2026, 09:45 | 62900 |
| May 1, 2026, 09:30 | 63000 |
| May 1, 2026, 09:15 | 63100 |
| May 1, 2026, 09:00 | 62900 |
| May 1, 2026, 08:45 | 62800 |
| May 1, 2026, 08:30 | 62800 |
| May 1, 2026, 08:15 | 62800 |
| May 1, 2026, 08:00 | 63100 |
| May 1, 2026, 07:45 | 62700 |
| May 1, 2026, 07:30 | 62700 |
| May 1, 2026, 07:15 | 62900 |
| Date/Time (UTC) | LockDam_07 Temp-Air F | LockDam_07 Temp-Water F | LockDam_07 Speed-Wind mph | LockDam_07 Dir-Wind deg |
|---|---|---|---|---|
| May 8, 2026, 06:00 | 44 | 56 | 4 | 25 |
| May 8, 2026, 05:45 | 45 | 56 | 5 | 39 |
| May 8, 2026, 05:30 | 45 | 56 | 6 | 5 |
| May 8, 2026, 05:15 | 46 | 56 | 9 | 34 |
| May 8, 2026, 05:00 | 46 | 56 | 15 | 9 |
| May 8, 2026, 04:45 | 47 | 56 | 5 | 238 |
| May 8, 2026, 04:30 | 47 | 56 | 3 | 177 |
| May 8, 2026, 04:15 | 47 | 56 | 3 | 126 |
| May 8, 2026, 04:00 | 48 | 56 | 4 | 280 |
| May 8, 2026, 03:45 | 48 | 56 | 5 | 64 |
| May 8, 2026, 03:30 | 48 | 56 | 6 | 16 |
| May 8, 2026, 03:15 | 50 | 56 | 11 | 8 |
| May 8, 2026, 03:00 | 50 | 56 | 117 | 293 |
| May 8, 2026, 02:45 | 50 | 56 | 78 | 47 |
| May 8, 2026, 02:30 | 51 | 56 | 3 | 111 |
| May 8, 2026, 02:15 | 51 | 56 | 4 | 150 |
| May 8, 2026, 02:00 | 52 | 56 | 4 | 192 |
| May 8, 2026, 01:45 | 52 | 56 | 1 | 338 |
| May 8, 2026, 01:30 | 53 | 56 | 3 | 17 |
| May 8, 2026, 01:15 | 53 | 56 | 5 | 50 |
| May 8, 2026, 01:00 | 54 | 56 | 79 | 348 |
| May 8, 2026, 00:45 | 54 | 56 | 94 | 37 |
| May 8, 2026, 00:30 | 55 | 56 | 56 | 93 |
| May 8, 2026, 00:15 | 55 | 56 | 79 | 172 |
| May 7, 2026, 24:00 | 55 | 56 | 14 | 52 |
| May 7, 2026, 23:45 | 55 | 56 | 3 | 220 |
| May 7, 2026, 23:30 | 55 | 56 | 2 | 225 |
| May 7, 2026, 23:15 | 56 | 56 | 2 | 216 |
| May 7, 2026, 23:00 | 56 | 56 | 2 | 138 |
| May 7, 2026, 22:45 | 56 | 56 | 1 | 202 |
| May 7, 2026, 22:30 | 56 | 56 | 2 | 182 |
| May 7, 2026, 22:15 | 56 | 56 | 2 | 39 |
| May 7, 2026, 22:00 | 56 | 56 | 2 | 271 |
| May 7, 2026, 21:45 | 56 | 56 | 2 | 237 |
| May 7, 2026, 21:30 | 56 | 56 | 2 | 165 |
| May 7, 2026, 21:15 | 55 | 56 | 2 | 162 |
| May 7, 2026, 21:00 | 56 | 56 | 3 | 207 |
| May 7, 2026, 20:45 | 56 | 56 | 3 | 179 |
| May 7, 2026, 20:30 | 55 | 56 | 13 | 349 |
| May 7, 2026, 20:15 | 55 | 56 | 104 | 46 |
| May 7, 2026, 20:00 | 55 | 56 | 6 | 6 |
| May 7, 2026, 19:45 | 54 | 56 | 39 | 31 |
| May 7, 2026, 19:30 | 54 | 56 | 53 | 30 |
| May 7, 2026, 19:15 | 54 | 56 | 3 | 321 |
| May 7, 2026, 19:00 | 53 | 56 | 3 | 353 |
| May 7, 2026, 18:45 | 53 | 56 | 2 | 217 |
| May 7, 2026, 18:30 | 52 | 56 | 2 | 7 |
| May 7, 2026, 18:15 | 51 | 56 | 2 | 336 |
| May 7, 2026, 18:00 | 50 | 56 | 4 | 191 |
| May 7, 2026, 17:45 | 50 | 56 | 4 | 172 |
| May 7, 2026, 17:30 | 49 | 55 | 5 | 126 |
| May 7, 2026, 17:15 | 49 | 55 | 114 | 68 |
| May 7, 2026, 17:00 | 48 | 55 | 6 | 33 |
| May 7, 2026, 16:45 | 48 | 55 | 3 | 322 |
| May 7, 2026, 16:30 | 47 | 55 | 4 | 143 |
| May 7, 2026, 16:15 | 46 | 55 | 5 | 261 |
| May 7, 2026, 16:00 | 46 | 55 | 6 | 175 |
| May 7, 2026, 15:45 | 46 | 55 | 14 | 88 |
| May 7, 2026, 15:30 | 45 | 55 | 9 | 13 |
| May 7, 2026, 15:15 | 45 | 55 | 6 | 107 |
| May 7, 2026, 15:00 | 44 | 55 | 7 | 128 |
| May 7, 2026, 14:45 | 44 | 55 | 11 | 85 |
| May 7, 2026, 14:30 | 44 | 55 | 12 | 356 |
| May 7, 2026, 14:15 | 44 | 55 | 8 | 15 |
| May 7, 2026, 14:00 | 44 | 55 | 6 | 9 |
| May 7, 2026, 13:45 | 44 | 55 | 4 | 253 |
| May 7, 2026, 13:30 | 44 | 55 | 5 | 236 |
| May 7, 2026, 13:15 | 43 | 55 | 6 | 193 |
| May 7, 2026, 13:00 | 43 | 55 | 6 | 164 |
| May 7, 2026, 12:45 | 43 | 55 | 6 | 173 |
| May 7, 2026, 12:30 | 42 | 55 | 5 | 294 |
| May 7, 2026, 12:15 | 42 | 55 | 4 | 166 |
| May 7, 2026, 12:00 | 41 | 56 | 4 | 84 |
| May 7, 2026, 11:45 | 41 | 56 | 3 | 211 |
| May 7, 2026, 11:30 | 40 | 56 | 3 | 210 |
| May 7, 2026, 11:15 | 39 | 56 | 2 | 270 |
| May 7, 2026, 11:00 | 39 | 56 | 3 | 141 |
| May 7, 2026, 10:45 | 40 | 55 | 1 | 202 |
| May 7, 2026, 10:30 | 40 | 56 | 3 | 319 |
| May 7, 2026, 10:15 | 40 | 56 | 5 | 229 |
| May 7, 2026, 10:00 | 39 | 56 | 4 | 7 |
| May 7, 2026, 09:45 | 39 | 56 | 3 | 187 |
| May 7, 2026, 09:30 | 40 | 56 | 2 | 165 |
| May 7, 2026, 09:15 | 40 | 56 | 1 | 226 |
| May 7, 2026, 09:00 | 40 | 56 | 4 | 207 |
| May 7, 2026, 08:45 | 40 | 56 | 2 | 212 |
| May 7, 2026, 08:30 | 40 | 56 | 1 | 143 |
| May 7, 2026, 08:15 | 40 | 56 | 1 | 154 |
| May 7, 2026, 08:00 | 41 | 56 | 2 | 219 |
| May 7, 2026, 07:45 | 40 | 56 | 4 | 258 |
| May 7, 2026, 07:30 | 39 | 56 | 3 | 224 |
| May 7, 2026, 07:15 | 39 | 56 | 3 | 190 |
| May 7, 2026, 07:00 | 39 | 56 | 4 | 201 |
| May 7, 2026, 06:45 | 40 | 56 | 4 | 179 |
| May 7, 2026, 06:30 | 40 | 56 | 1 | 234 |
| May 7, 2026, 06:15 | 40 | 56 | 2 | 138 |
| May 7, 2026, 06:00 | 40 | 56 | 4 | 201 |
| May 7, 2026, 05:45 | 40 | 56 | 2 | 186 |
| May 7, 2026, 05:30 | 41 | 56 | 2 | 180 |
| May 7, 2026, 05:15 | 41 | 56 | 1 | 217 |
| May 7, 2026, 05:00 | 41 | 56 | 1 | 178 |
| May 7, 2026, 04:45 | 41 | 56 | 1 | 192 |
| May 7, 2026, 04:30 | 41 | 56 | 2 | 195 |
| May 7, 2026, 04:15 | 42 | 56 | 3 | 203 |
| May 7, 2026, 04:00 | 42 | 56 | 2 | 192 |
| May 7, 2026, 03:45 | 42 | 56 | 2 | 173 |
| May 7, 2026, 03:30 | 42 | 56 | 4 | 302 |
| May 7, 2026, 03:15 | 43 | 56 | 4 | 210 |
| May 7, 2026, 03:00 | 43 | 56 | 6 | 154 |
| May 7, 2026, 02:45 | 44 | 57 | 5 | 261 |
| May 7, 2026, 02:30 | 44 | 57 | 8 | 156 |
| May 7, 2026, 02:15 | 45 | 57 | 6 | 163 |
| May 7, 2026, 02:00 | 45 | 57 | 5 | 102 |
| May 7, 2026, 01:45 | 45 | 57 | 5 | 106 |
| May 7, 2026, 01:30 | 45 | 57 | 6 | 234 |
| May 7, 2026, 01:15 | 46 | 57 | 4 | 328 |
| May 7, 2026, 01:00 | 46 | 57 | 7 | 338 |
| May 7, 2026, 00:45 | 46 | 57 | 13 | 260 |
| May 7, 2026, 00:30 | 46 | 57 | 88 | 51 |
| May 7, 2026, 00:15 | 46 | 57 | 13 | 0 |
| May 6, 2026, 24:00 | 46 | 57 | 13 | 1 |
| May 6, 2026, 23:45 | 46 | 57 | 55 | 123 |
| May 6, 2026, 23:30 | 46 | 57 | 13 | 82 |
| May 6, 2026, 23:15 | 46 | 57 | 11 | 174 |
| May 6, 2026, 23:00 | 46 | 57 | 87 | 70 |
| May 6, 2026, 22:45 | 46 | 57 | 120 | 55 |
| May 6, 2026, 22:30 | 46 | 57 | 56 | 55 |
| May 6, 2026, 22:15 | 46 | 57 | 55 | 48 |
| May 6, 2026, 22:00 | 46 | 57 | 11 | 34 |
| May 6, 2026, 21:45 | 46 | 57 | 13 | 13 |
| May 6, 2026, 21:30 | 46 | 57 | 46 | 30 |
| May 6, 2026, 21:15 | 46 | 57 | 11 | 57 |
| May 6, 2026, 21:00 | 46 | 57 | 43 | 37 |
| May 6, 2026, 20:45 | 46 | 57 | 54 | 106 |
| May 6, 2026, 20:30 | 46 | 57 | 19 | 49 |
| May 6, 2026, 20:15 | 46 | 57 | 20 | 49 |
| May 6, 2026, 20:00 | 46 | 57 | 13 | 100 |
| May 6, 2026, 19:45 | 46 | 57 | 55 | 45 |
| May 6, 2026, 19:30 | 46 | 57 | 121 | 45 |
| May 6, 2026, 19:15 | 46 | 57 | 45 | 86 |
| May 6, 2026, 19:00 | 46 | 57 | 7 | 76 |
| May 6, 2026, 18:45 | 47 | 57 | 5 | 104 |
| May 6, 2026, 18:30 | 46 | 57 | 10 | 33 |
| May 6, 2026, 18:15 | 46 | 57 | 16 | 333 |
| May 6, 2026, 18:00 | 46 | 57 | 18 | 18 |
| May 6, 2026, 17:45 | 46 | 57 | 11 | 35 |
| May 6, 2026, 17:30 | 46 | 57 | 50 | 358 |
| May 6, 2026, 17:15 | 46 | 57 | 7 | 7 |
| May 6, 2026, 17:00 | 46 | 57 | 6 | 12 |
| May 6, 2026, 16:45 | 45 | 57 | 6 | 333 |
| May 6, 2026, 16:30 | 45 | 57 | 7 | 321 |
| May 6, 2026, 16:15 | 45 | 57 | 3 | 246 |
| May 6, 2026, 16:00 | 44 | 57 | 4 | 280 |
| May 6, 2026, 15:45 | 44 | 57 | 6 | 0 |
| May 6, 2026, 15:30 | 43 | 57 | 4 | 145 |
| May 6, 2026, 15:15 | 43 | 57 | 5 | 331 |
| May 6, 2026, 15:00 | 43 | 57 | 6 | 90 |
| May 6, 2026, 14:45 | 43 | 57 | 7 | 311 |
| May 6, 2026, 14:30 | 43 | 58 | 7 | 152 |
| May 6, 2026, 14:15 | 43 | 57 | 6 | 228 |
| May 6, 2026, 14:00 | 42 | 58 | 3 | 157 |
| May 6, 2026, 13:45 | 42 | 58 | 3 | 208 |
| May 6, 2026, 13:30 | 42 | 58 | 2 | 200 |
| May 6, 2026, 13:15 | 42 | 58 | 1 | 109 |
| May 6, 2026, 13:00 | 42 | 58 | 1 | 171 |
| May 6, 2026, 12:45 | 41 | 58 | 1 | 199 |
| May 6, 2026, 12:30 | 41 | 58 | 3 | 209 |
| May 6, 2026, 12:15 | 41 | 58 | 5 | 125 |
| May 6, 2026, 12:00 | 41 | 58 | 4 | 144 |
| May 6, 2026, 11:45 | 41 | 58 | 2 | 223 |
| May 6, 2026, 11:30 | 41 | 58 | 1 | 188 |
| May 6, 2026, 11:15 | 41 | 58 | 2 | 220 |
| May 6, 2026, 11:00 | 41 | 58 | 4 | 222 |
| May 6, 2026, 10:45 | 41 | 58 | 3 | 194 |
| May 6, 2026, 10:30 | 41 | 58 | 2 | 254 |
| May 6, 2026, 10:15 | 42 | 58 | 2 | 215 |
| May 6, 2026, 10:00 | 42 | 58 | 4 | 260 |
| May 6, 2026, 09:45 | 42 | 58 | 7 | 293 |
| May 6, 2026, 09:30 | 43 | 58 | 7 | 53 |
| May 6, 2026, 09:15 | 43 | 58 | 6 | 194 |
| May 6, 2026, 09:00 | 43 | 58 | 6 | 126 |
| May 6, 2026, 08:45 | 44 | 58 | 4 | 35 |
| May 6, 2026, 08:30 | 44 | 58 | 6 | 292 |
| May 6, 2026, 08:15 | 45 | 58 | 6 | 45 |
| May 6, 2026, 08:00 | 45 | 58 | 5 | 264 |
| May 6, 2026, 07:45 | 45 | 58 | 3 | 258 |
| May 6, 2026, 07:30 | 45 | 59 | 6 | 17 |
| May 6, 2026, 07:15 | 46 | 59 | 7 | 30 |
| May 6, 2026, 07:00 | 46 | 59 | 51 | 61 |
| May 6, 2026, 06:45 | 46 | 59 | 12 | 63 |
| May 6, 2026, 06:30 | 47 | 59 | 7 | 97 |
| May 6, 2026, 06:15 | 47 | 59 | 6 | 126 |
| May 6, 2026, 06:00 | 47 | 59 | 5 | 189 |
| May 6, 2026, 05:45 | 48 | 59 | 5 | 127 |
| May 6, 2026, 05:30 | 48 | 59 | 5 | 87 |
| May 6, 2026, 05:15 | 48 | 59 | 5 | 239 |
| May 6, 2026, 05:00 | 48 | 59 | 4 | 206 |
| May 6, 2026, 04:45 | 48 | 59 | 3 | 108 |
| May 6, 2026, 04:30 | 48 | 59 | 3 | 181 |
| May 6, 2026, 04:15 | 48 | 59 | 2 | 309 |
| May 6, 2026, 04:00 | 49 | 59 | 4 | 291 |
| May 6, 2026, 03:45 | 49 | 59 | 4 | 49 |
| May 6, 2026, 03:30 | 50 | 59 | 41 | 86 |
| May 6, 2026, 03:15 | 50 | 59 | 144 | 306 |
| May 6, 2026, 03:00 | 50 | 59 | 317 | 34 |
| May 6, 2026, 02:45 | 50 | 59 | 14 | 37 |
| May 6, 2026, 02:30 | 50 | 59 | 8 | 336 |
| May 6, 2026, 02:15 | 50 | 59 | 11 | 178 |
| May 6, 2026, 02:00 | 50 | 59 | 19 | 18 |
| May 6, 2026, 01:45 | 50 | 59 | 14 | 357 |
| May 6, 2026, 01:30 | 51 | 59 | 5 | 149 |
| May 6, 2026, 01:15 | 51 | 59 | 4 | 135 |
| May 6, 2026, 01:00 | 51 | 59 | 4 | 106 |
| May 6, 2026, 00:45 | 52 | 59 | 3 | 223 |
| May 6, 2026, 00:30 | 52 | 59 | 3 | 155 |
| May 6, 2026, 00:15 | 52 | 59 | 3 | 195 |
| May 5, 2026, 24:00 | 52 | 59 | 2 | 270 |
| May 5, 2026, 23:45 | 52 | 59 | 2 | 174 |
| May 5, 2026, 23:30 | 52 | 59 | 2 | 254 |
| May 5, 2026, 23:15 | 52 | 59 | 2 | 271 |
| May 5, 2026, 23:00 | 53 | 59 | 1 | 59 |
| May 5, 2026, 22:45 | 53 | 59 | 1 | 313 |
| May 5, 2026, 22:30 | 53 | 59 | 2 | 106 |
| May 5, 2026, 22:15 | 53 | 59 | 2 | 91 |
| May 5, 2026, 22:00 | 53 | 59 | 2 | 262 |
| May 5, 2026, 21:45 | 53 | 60 | 3 | 252 |
| May 5, 2026, 21:30 | 53 | 60 | 3 | 37 |
| May 5, 2026, 21:15 | 53 | 60 | 3 | 46 |
| May 5, 2026, 21:00 | 53 | 60 | 4 | 297 |
| May 5, 2026, 20:45 | 53 | 60 | 3 | 326 |
| May 5, 2026, 20:30 | 53 | 60 | 1 | 214 |
| May 5, 2026, 20:15 | 53 | 60 | 2 | 351 |
| May 5, 2026, 20:00 | 53 | 60 | 2 | 266 |
| May 5, 2026, 19:45 | 53 | 60 | 2 | 300 |
| May 5, 2026, 19:30 | 53 | 60 | 2 | 221 |
| May 5, 2026, 19:15 | 52 | 60 | 2 | 148 |
| May 5, 2026, 19:00 | 53 | 59 | 1 | 1 |
| May 5, 2026, 18:45 | 53 | 59 | 2 | 287 |
| May 5, 2026, 18:30 | 52 | 59 | 4 | 172 |
| May 5, 2026, 18:15 | 52 | 59 | 3 | 168 |
| May 5, 2026, 18:00 | 51 | 59 | 4 | 165 |
| May 5, 2026, 17:45 | 51 | 59 | 4 | 282 |
| May 5, 2026, 17:30 | 50 | 59 | 207 | 140 |
| May 5, 2026, 17:15 | 50 | 59 | 20 | 331 |
| May 5, 2026, 17:00 | 50 | 59 | 100 | 15 |
| May 5, 2026, 16:45 | 50 | 59 | 15 | 342 |
| May 5, 2026, 16:30 | 49 | 59 | 5 | 333 |
| May 5, 2026, 16:15 | 49 | 59 | 4 | 213 |
| May 5, 2026, 16:00 | 49 | 59 | 2 | 313 |
| May 5, 2026, 15:45 | 49 | 59 | 3 | 212 |
| May 5, 2026, 15:30 | 48 | 59 | 4 | 202 |
| May 5, 2026, 15:15 | 48 | 59 | 6 | 182 |
| May 5, 2026, 15:00 | 48 | 59 | 5 | 168 |
| May 5, 2026, 14:45 | 48 | 59 | 8 | 176 |
| May 5, 2026, 14:30 | 47 | 59 | 58 | 45 |
| May 5, 2026, 14:15 | 47 | 59 | 82 | 62 |
| May 5, 2026, 14:00 | 47 | 59 | 11 | 333 |
| May 5, 2026, 13:45 | 46 | 59 | 9 | 340 |
| May 5, 2026, 13:30 | 47 | 59 | 11 | 333 |
| May 5, 2026, 13:15 | 46 | 59 | 7 | 343 |
| May 5, 2026, 13:00 | 46 | 59 | 5 | 25 |
| May 5, 2026, 12:45 | 46 | 59 | 3 | 2 |
| May 5, 2026, 12:30 | 46 | 59 | 4 | 163 |
| May 5, 2026, 12:15 | 46 | 59 | 3 | 291 |
| May 5, 2026, 12:00 | 45 | 59 | 4 | 156 |
| May 5, 2026, 11:45 | 45 | 59 | 5 | 192 |
| May 5, 2026, 11:30 | 45 | 59 | 6 | 127 |
| May 5, 2026, 11:15 | 45 | 60 | 6 | 332 |
| May 5, 2026, 11:00 | 45 | 60 | 4 | 20 |
| May 5, 2026, 10:45 | 45 | 60 | 6 | 59 |
| May 5, 2026, 10:30 | 46 | 60 | 4 | 207 |
| May 5, 2026, 10:15 | 46 | 60 | 3 | 256 |
| May 5, 2026, 10:00 | 46 | 60 | 7 | 320 |
| May 5, 2026, 09:45 | 46 | 60 | 5 | 24 |
| May 5, 2026, 09:30 | 47 | 60 | 7 | 30 |
| May 5, 2026, 09:15 | 47 | 60 | 9 | 12 |
| May 5, 2026, 09:00 | 48 | 60 | 16 | 43 |
| May 5, 2026, 08:45 | 48 | 60 | 12 | 42 |
| May 5, 2026, 08:30 | 48 | 60 | 9 | 58 |
| May 5, 2026, 08:15 | 49 | 60 | 5 | 48 |
| May 5, 2026, 08:00 | 49 | 60 | 4 | 151 |
| May 5, 2026, 07:45 | 49 | 60 | 4 | 193 |
| May 5, 2026, 07:30 | 50 | 60 | 3 | 210 |
| May 5, 2026, 07:15 | 50 | 60 | 4 | 16 |
| May 5, 2026, 07:00 | 50 | 60 | 4 | 286 |
| May 5, 2026, 06:45 | 51 | 61 | 46 | 116 |
| May 5, 2026, 06:30 | 51 | 60 | 81 | 287 |
| May 5, 2026, 06:15 | 51 | 61 | 57 | 300 |
| May 5, 2026, 06:00 | 51 | 61 | 49 | 315 |
| May 5, 2026, 05:45 | 51 | 61 | 11 | 0 |
| May 5, 2026, 05:30 | 51 | 61 | 5 | 236 |
| May 5, 2026, 05:15 | 51 | 61 | 4 | 280 |
| May 5, 2026, 05:00 | 52 | 61 | 4 | 206 |
| May 5, 2026, 04:45 | 52 | 61 | 3 | 169 |
| May 5, 2026, 04:30 | 53 | 61 | 2 | 276 |
| May 5, 2026, 04:15 | 53 | 61 | 1 | 352 |
| May 5, 2026, 04:00 | 54 | 61 | 2 | 250 |
| May 5, 2026, 03:45 | 54 | 61 | 3 | 21 |
| May 5, 2026, 03:30 | 54 | 61 | 4 | 350 |
| May 5, 2026, 03:15 | 55 | 61 | 72 | 45 |
| May 5, 2026, 03:00 | 55 | 61 | 14 | 42 |
| May 5, 2026, 02:45 | 56 | 61 | 309 | 322 |
| May 5, 2026, 02:30 | 56 | 61 | 10 | 65 |
| May 5, 2026, 02:15 | 57 | 61 | 3 | 215 |
| May 5, 2026, 02:00 | 58 | 61 | 2 | 215 |
| May 5, 2026, 01:45 | 58 | 61 | 1 | 218 |
| May 5, 2026, 01:30 | 59 | 61 | 3 | 39 |
| May 5, 2026, 01:15 | 60 | 61 | 3 | 187 |
| May 5, 2026, 01:00 | 60 | 61 | 2 | 151 |
| May 5, 2026, 00:45 | 61 | 61 | 2 | 169 |
| May 5, 2026, 00:30 | 62 | 61 | 3 | 295 |
| May 5, 2026, 00:15 | 62 | 61 | 6 | 52 |
| May 4, 2026, 24:00 | 63 | 61 | 6 | 58 |
| May 4, 2026, 23:45 | 63 | 61 | 81 | 220 |
| May 4, 2026, 23:30 | 63 | 61 | 8 | 341 |
| May 4, 2026, 23:15 | 64 | 61 | 4 | 5 |
| May 4, 2026, 23:00 | 64 | 61 | 5 | 332 |
| May 4, 2026, 22:45 | 65 | 61 | 2 | 348 |
| May 4, 2026, 22:30 | 65 | 61 | 4 | 20 |
| May 4, 2026, 22:15 | 66 | 61 | 4 | 348 |
| May 4, 2026, 22:00 | 66 | 61 | 6 | 4 |
| May 4, 2026, 21:45 | 66 | 61 | 44 | 19 |
| May 4, 2026, 21:30 | 67 | 61 | 84 | 50 |
| May 4, 2026, 21:15 | 67 | 61 | 178 | 281 |
| May 4, 2026, 21:00 | 67 | 61 | 79 | 13 |
| May 4, 2026, 20:45 | 67 | 61 | 42 | 16 |
| May 4, 2026, 20:30 | 68 | 61 | 359 | 251 |
| May 4, 2026, 20:15 | 69 | 61 | 175 | 271 |
| May 4, 2026, 20:00 | 69 | 61 | 383 | 75 |
| May 4, 2026, 19:45 | 69 | 61 | 183 | 37 |
| May 4, 2026, 19:30 | 71 | 61 | 13 | 41 |
| May 4, 2026, 19:15 | 70 | 61 | 82 | 43 |
| May 4, 2026, 19:00 | 70 | 61 | 214 | 220 |
| May 4, 2026, 18:45 | 70 | 61 | 186 | 23 |
| May 4, 2026, 18:30 | 70 | 61 | 345 | 279 |
| May 4, 2026, 18:15 | 69 | 61 | 700 | 359 |
| May 4, 2026, 18:00 | 69 | 61 | 212 | 187 |
| May 4, 2026, 17:45 | 70 | 61 | 545 | 49 |
| May 4, 2026, 17:30 | 69 | 61 | 571 | 65 |
| May 4, 2026, 17:15 | 69 | 61 | 411 | 311 |
| May 4, 2026, 17:00 | 69 | 60 | 116 | 76 |
| May 4, 2026, 16:45 | 70 | 60 | 90 | 26 |
| May 4, 2026, 16:30 | 70 | 60 | 224 | 52 |
| May 4, 2026, 16:15 | 70 | 60 | 110 | 74 |
| May 4, 2026, 16:00 | 70 | 60 | 11 | 36 |
| May 4, 2026, 15:45 | 69 | 60 | 9 | 87 |
| May 4, 2026, 15:30 | 68 | 60 | 82 | 41 |
| May 4, 2026, 15:15 | 69 | 60 | 153 | 4 |
| May 4, 2026, 15:00 | 67 | 60 | 474 | 86 |
| May 4, 2026, 14:45 | 66 | 60 | 175 | 43 |
| May 4, 2026, 14:30 | 65 | 60 | 70 | 289 |
| May 4, 2026, 14:15 | 64 | 60 | 2 | 79 |
| May 4, 2026, 14:00 | 63 | 60 | 40 | 12 |
| May 4, 2026, 13:45 | 62 | 60 | 43 | 53 |
| May 4, 2026, 13:30 | 61 | 60 | 6 | 335 |
| May 4, 2026, 13:15 | 60 | 60 | 3 | 263 |
| May 4, 2026, 13:00 | 60 | 60 | 2 | 198 |
| May 4, 2026, 12:45 | 59 | 60 | 2 | 150 |
| May 4, 2026, 12:30 | 58 | 60 | 3 | 221 |
| May 4, 2026, 12:15 | 56 | 60 | 4 | 228 |
| May 4, 2026, 12:00 | 54 | 60 | 12 | 12 |
| May 4, 2026, 11:45 | 53 | 60 | 2 | 89 |
| May 4, 2026, 11:30 | 52 | 60 | 3 | 216 |
| May 4, 2026, 11:15 | 52 | 60 | 2 | 182 |
| May 4, 2026, 11:00 | 52 | 60 | 3 | 132 |
| May 4, 2026, 10:45 | 52 | 60 | 4 | 163 |
| May 4, 2026, 10:30 | 52 | 60 | 3 | 212 |
| May 4, 2026, 10:15 | 52 | 60 | 4 | 219 |
| May 4, 2026, 10:00 | 52 | 60 | 4 | 46 |
| May 4, 2026, 09:45 | 52 | 60 | 3 | 191 |
| May 4, 2026, 09:30 | 53 | 60 | 2 | 271 |
| May 4, 2026, 09:15 | 53 | 60 | 2 | 335 |
| May 4, 2026, 09:00 | 53 | 60 | 3 | 199 |
| May 4, 2026, 08:45 | 53 | 60 | 4 | 77 |
| May 4, 2026, 08:30 | 54 | 60 | 8 | 23 |
| May 4, 2026, 08:15 | 54 | 60 | 10 | 73 |
| May 4, 2026, 08:00 | 55 | 60 | 117 | 303 |
| May 4, 2026, 07:45 | 55 | 60 | 16 | 48 |
| May 4, 2026, 07:30 | 56 | 60 | 8 | 160 |
| May 4, 2026, 07:15 | 56 | 60 | 3 | 61 |
| May 4, 2026, 07:00 | 57 | 60 | 2 | 178 |
| May 4, 2026, 06:45 | 57 | 60 | 2 | 200 |
| May 4, 2026, 06:30 | 57 | 60 | 2 | 275 |
| May 4, 2026, 06:15 | 58 | 60 | 2 | 219 |
| May 4, 2026, 06:00 | 58 | 60 | 2 | 199 |
| May 4, 2026, 05:45 | 58 | 60 | 2 | 232 |
| May 4, 2026, 05:30 | 58 | 60 | 2 | 173 |
| May 4, 2026, 05:15 | 58 | 60 | 3 | 335 |
| May 4, 2026, 05:00 | 59 | 60 | 3 | 232 |
| May 4, 2026, 04:45 | 59 | 60 | 2 | 199 |
| May 4, 2026, 04:30 | 59 | 60 | 2 | 65 |
| May 4, 2026, 04:15 | 60 | 60 | 2 | 58 |
| May 4, 2026, 04:00 | 60 | 60 | 3 | 358 |
| May 4, 2026, 03:45 | 61 | 60 | 11 | 21 |
| May 4, 2026, 03:30 | 62 | 60 | 9 | 316 |
| May 4, 2026, 03:15 | 62 | 60 | 4 | 11 |
| May 4, 2026, 03:00 | 62 | 60 | 7 | 354 |
| May 4, 2026, 02:45 | 63 | 60 | 8 | 42 |
| May 4, 2026, 02:30 | 63 | 60 | 6 | 0 |
| May 4, 2026, 02:15 | 63 | 60 | 9 | 349 |
| May 4, 2026, 02:00 | 63 | 61 | 5 | 326 |
| May 4, 2026, 01:45 | 64 | 60 | 3 | 338 |
| May 4, 2026, 01:30 | 65 | 60 | 38 | 17 |
| May 4, 2026, 01:15 | 66 | 60 | 71 | 354 |
| May 4, 2026, 01:00 | 67 | 60 | 117 | 38 |
| May 4, 2026, 00:45 | 67 | 60 | 355 | 209 |
| May 4, 2026, 00:30 | 67 | 60 | 705 | 27 |
| May 4, 2026, 00:15 | 67 | 60 | 439 | 194 |
| May 3, 2026, 24:00 | 68 | 60 | 740 | 243 |
| May 3, 2026, 23:45 | 68 | 60 | 212 | 63 |
| May 3, 2026, 23:30 | 68 | 60 | 5 | 164 |
| May 3, 2026, 23:15 | 69 | 60 | 4 | 214 |
| May 3, 2026, 23:00 | 70 | 60 | 4 | 166 |
| May 3, 2026, 22:45 | 69 | 60 | 4 | 209 |
| May 3, 2026, 22:30 | 70 | 60 | 4 | 147 |
| May 3, 2026, 22:15 | 70 | 60 | 3 | 268 |
| May 3, 2026, 22:00 | 70 | 60 | 4 | 154 |
| May 3, 2026, 21:45 | 70 | 60 | 4 | 172 |
| May 3, 2026, 21:30 | 70 | 60 | 3 | 318 |
| May 3, 2026, 21:15 | 70 | 60 | 280 | 48 |
| May 3, 2026, 21:00 | 69 | 60 | 12 | 42 |
| May 3, 2026, 20:45 | 69 | 60 | 177 | 40 |
| May 3, 2026, 20:30 | 68 | 60 | 445 | 6 |
| May 3, 2026, 20:15 | 68 | 60 | 46 | 19 |
| May 3, 2026, 20:00 | 67 | 60 | 175 | 344 |
| May 3, 2026, 19:45 | 66 | 60 | 137 | 28 |
| May 3, 2026, 19:30 | 67 | 60 | 112 | 59 |
| May 3, 2026, 19:15 | 68 | 60 | 125 | 27 |
| May 3, 2026, 19:00 | 67 | 60 | 49 | 29 |
| May 3, 2026, 18:45 | 67 | 59 | 109 | 17 |
| May 3, 2026, 18:30 | 66 | 59 | 4 | 10 |
| May 3, 2026, 18:15 | 65 | 59 | 3 | 355 |
| May 3, 2026, 18:00 | 65 | 59 | 3 | 143 |
| May 3, 2026, 17:45 | 64 | 59 | 7 | 69 |
| May 3, 2026, 17:30 | 64 | 59 | 7 | 26 |
| May 3, 2026, 17:15 | 64 | 59 | 8 | 36 |
| May 3, 2026, 17:00 | 63 | 59 | 7 | 348 |
| May 3, 2026, 16:45 | 63 | 59 | 78 | 239 |
| May 3, 2026, 16:30 | 62 | 59 | 110 | 21 |
| May 3, 2026, 16:15 | 62 | 59 | 8 | 28 |
| May 3, 2026, 16:00 | 62 | 59 | 9 | 60 |
| May 3, 2026, 15:45 | 61 | 59 | 5 | 29 |
| May 3, 2026, 15:30 | 61 | 59 | 3 | 247 |
| May 3, 2026, 15:15 | 61 | 58 | 3 | 127 |
| May 3, 2026, 15:00 | 61 | 58 | 2 | 268 |
| May 3, 2026, 14:45 | 61 | 58 | 2 | 251 |
| May 3, 2026, 14:30 | 60 | 58 | 2 | 219 |
| May 3, 2026, 14:15 | 60 | 58 | 2 | 89 |
| May 3, 2026, 14:00 | 59 | 58 | 2 | 178 |
| May 3, 2026, 13:45 | 59 | 58 | 4 | 11 |
| May 3, 2026, 13:30 | 58 | 58 | 2 | 321 |
| May 3, 2026, 13:15 | 58 | 58 | 2 | 329 |
| May 3, 2026, 13:00 | 57 | 58 | 1 | 97 |
| May 3, 2026, 12:45 | 57 | 58 | 1 | 214 |
| May 3, 2026, 12:30 | 57 | 58 | 2 | 165 |
| May 3, 2026, 12:15 | 56 | 58 | 3 | 239 |
| May 3, 2026, 12:00 | 55 | 58 | 41 | 298 |
| May 3, 2026, 11:45 | 55 | 58 | 7 | 67 |
| May 3, 2026, 11:30 | 55 | 58 | 3 | 192 |
| May 3, 2026, 11:15 | 55 | 58 | 3 | 165 |
| May 3, 2026, 11:00 | 55 | 58 | 2 | 329 |
| May 3, 2026, 10:45 | 55 | 58 | 3 | 136 |
| May 3, 2026, 10:30 | 55 | 58 | 37 | 345 |
| May 3, 2026, 10:15 | 54 | 59 | 12 | 57 |
| May 3, 2026, 10:00 | 54 | 59 | 83 | 109 |
| May 3, 2026, 09:45 | 55 | 59 | 38 | 290 |
| May 3, 2026, 09:30 | 55 | 59 | 40 | 158 |
| May 3, 2026, 09:15 | 55 | 59 | 3 | 242 |
| May 3, 2026, 09:00 | 55 | 59 | 5 | 218 |
| May 3, 2026, 08:45 | 55 | 59 | 7 | 131 |
| May 3, 2026, 08:30 | 55 | 59 | 3 | 218 |
| May 3, 2026, 08:15 | 55 | 59 | 4 | 326 |
| May 3, 2026, 08:00 | 56 | 59 | 4 | 131 |
| May 3, 2026, 07:45 | 56 | 59 | 4 | 184 |
| May 3, 2026, 07:30 | 56 | 59 | 1 | 180 |
| May 3, 2026, 07:15 | 55 | 59 | 4 | 186 |
| May 3, 2026, 07:00 | 55 | 59 | 3 | 353 |
| May 3, 2026, 06:45 | 55 | 59 | 5 | 286 |
| May 3, 2026, 06:30 | 55 | 59 | 5 | 90 |
| May 3, 2026, 06:15 | 55 | 59 | 4 | 18 |
| May 3, 2026, 06:00 | 55 | 59 | 5 | 234 |
| May 3, 2026, 05:45 | 54 | 59 | 4 | 20 |
| May 3, 2026, 05:30 | 54 | 59 | 6 | 131 |
| May 3, 2026, 05:15 | 54 | 59 | 4 | 91 |
| May 3, 2026, 05:00 | 54 | 59 | 5 | 11 |
| May 3, 2026, 04:45 | 54 | 59 | 6 | 178 |
| May 3, 2026, 04:30 | 54 | 59 | 79 | 38 |
| May 3, 2026, 04:15 | 55 | 59 | 105 | 25 |
| May 3, 2026, 04:00 | 55 | 59 | 2 | 225 |
| May 3, 2026, 03:45 | 55 | 59 | 3 | 331 |
| May 3, 2026, 03:30 | 55 | 59 | 3 | 217 |
| May 3, 2026, 03:15 | 55 | 59 | 4 | 220 |
| May 3, 2026, 03:00 | 56 | 59 | 3 | 188 |
| May 3, 2026, 02:45 | 56 | 59 | 2 | 201 |
| May 3, 2026, 02:30 | 56 | 59 | 1 | 167 |
| May 3, 2026, 02:15 | 56 | 59 | 2 | 229 |
| May 3, 2026, 02:00 | 57 | 59 | 2 | 248 |
| May 3, 2026, 01:45 | 57 | 59 | 2 | 311 |
| May 3, 2026, 01:30 | 57 | 59 | 3 | 191 |
| May 3, 2026, 01:15 | 58 | 59 | 2 | 211 |
| May 3, 2026, 01:00 | 58 | 59 | 2 | 136 |
| May 3, 2026, 00:45 | 59 | 59 | 5 | 4 |
| May 3, 2026, 00:30 | 60 | 59 | 8 | 286 |
| May 3, 2026, 00:15 | 60 | 59 | 11 | 36 |
| May 2, 2026, 24:00 | 61 | 59 | 5 | 283 |
| May 2, 2026, 23:45 | 61 | 59 | 4 | 342 |
| May 2, 2026, 23:30 | 61 | 59 | 316 | 34 |
| May 2, 2026, 23:15 | 61 | 59 | 425 | 219 |
| May 2, 2026, 23:00 | 61 | 59 | 213 | 19 |
| May 2, 2026, 22:45 | 61 | 59 | 70 | 143 |
| May 2, 2026, 22:30 | 61 | 59 | 3 | 11 |
| May 2, 2026, 22:15 | 62 | 59 | 3 | 336 |
| May 2, 2026, 22:00 | 62 | 59 | 3 | 297 |
| May 2, 2026, 21:45 | 62 | 59 | 3 | 12 |
| May 2, 2026, 21:30 | 61 | 59 | 108 | 16 |
| May 2, 2026, 21:15 | 61 | 59 | 77 | 346 |
| May 2, 2026, 21:00 | 61 | 59 | 3 | 19 |
| May 2, 2026, 20:45 | 60 | 59 | 7 | 90 |
| May 2, 2026, 20:30 | 60 | 59 | 3 | 151 |
| May 2, 2026, 20:15 | 59 | 59 | 3 | 193 |
| May 2, 2026, 20:00 | 59 | 59 | 3 | 345 |
| May 2, 2026, 19:45 | 59 | 59 | 3 | 46 |
| May 2, 2026, 19:30 | 58 | 59 | 3 | 265 |
| May 2, 2026, 19:15 | 58 | 59 | 2 | 183 |
| May 2, 2026, 19:00 | 58 | 58 | 2 | 152 |
| May 2, 2026, 18:45 | 57 | 58 | 2 | 243 |
| May 2, 2026, 18:30 | 57 | 58 | 2 | 218 |
| May 2, 2026, 18:15 | 57 | 58 | 3 | 214 |
| May 2, 2026, 18:00 | 56 | 58 | 4 | 209 |
| May 2, 2026, 17:45 | 56 | 58 | 4 | 259 |
| May 2, 2026, 17:30 | 56 | 58 | 4 | 38 |
| May 2, 2026, 17:15 | 55 | 58 | 10 | 53 |
| May 2, 2026, 17:00 | 55 | 58 | 7 | 64 |
| May 2, 2026, 16:45 | 54 | 58 | 59 | 73 |
| May 2, 2026, 16:30 | 53 | 58 | 125 | 170 |
| May 2, 2026, 16:15 | 53 | 58 | 46 | 321 |
| May 2, 2026, 16:00 | 51 | 58 | 4 | 234 |
| May 2, 2026, 15:45 | 51 | 58 | 2 | 286 |
| May 2, 2026, 15:30 | 51 | 57 | 2 | 264 |
| May 2, 2026, 15:15 | 51 | 57 | 2 | 214 |
| May 2, 2026, 15:00 | 51 | 57 | 3 | 199 |
| May 2, 2026, 14:45 | 50 | 57 | 4 | 330 |
| May 2, 2026, 14:30 | 49 | 57 | 45 | 279 |
| May 2, 2026, 14:15 | 48 | 57 | 9 | 289 |
| May 2, 2026, 14:00 | 47 | 57 | 7 | 283 |
| May 2, 2026, 13:45 | 46 | 57 | 6 | 312 |
| May 2, 2026, 13:30 | 45 | 57 | 6 | 174 |
| May 2, 2026, 13:15 | 43 | 57 | 6 | 268 |
| May 2, 2026, 13:00 | 43 | 57 | 7 | 244 |
| May 2, 2026, 12:45 | 42 | 57 | 6 | 148 |
| May 2, 2026, 12:30 | 42 | 57 | 3 | 167 |
| May 2, 2026, 12:15 | 41 | 57 | 3 | 247 |
| May 2, 2026, 12:00 | 40 | 57 | 2 | 199 |
| May 2, 2026, 11:45 | 38 | 57 | 5 | 54 |
| May 2, 2026, 11:30 | 38 | 57 | 4 | 82 |
| May 2, 2026, 11:15 | 37 | 57 | 5 | 152 |
| May 2, 2026, 11:00 | 38 | 58 | 2 | 187 |
| May 2, 2026, 10:45 | 38 | 58 | 4 | 201 |
| May 2, 2026, 10:30 | 38 | 58 | 3 | 186 |
| May 2, 2026, 10:15 | 39 | 58 | 2 | 174 |
| May 2, 2026, 10:00 | 39 | 58 | 3 | 177 |
| May 2, 2026, 09:45 | 39 | 58 | 1 | 177 |
| May 2, 2026, 09:30 | 39 | 58 | 2 | 189 |
| May 2, 2026, 09:15 | 40 | 58 | 4 | 255 |
| May 2, 2026, 09:00 | 40 | 58 | 2 | 205 |
| May 2, 2026, 08:45 | 40 | 58 | 4 | 156 |
| May 2, 2026, 08:30 | 40 | 58 | 2 | 235 |
| May 2, 2026, 08:15 | 41 | 58 | 1 | 192 |
| May 2, 2026, 08:00 | 41 | 58 | 2 | 223 |
| May 2, 2026, 07:45 | 41 | 58 | 4 | 232 |
| May 2, 2026, 07:30 | 41 | 58 | 4 | 223 |
| May 2, 2026, 07:15 | 42 | 58 | 5 | 171 |
| May 2, 2026, 07:00 | 42 | 58 | 5 | 257 |
| May 2, 2026, 06:45 | 43 | 58 | 8 | 259 |
| May 2, 2026, 06:30 | 43 | 58 | 5 | 218 |
| May 2, 2026, 06:15 | 44 | 58 | 6 | 62 |
| May 2, 2026, 06:00 | 44 | 58 | 6 | 348 |
| May 2, 2026, 05:45 | 44 | 58 | 7 | 63 |
| May 2, 2026, 05:30 | 45 | 58 | 3 | 185 |
| May 2, 2026, 05:15 | 45 | 58 | 4 | 296 |
| May 2, 2026, 05:00 | 46 | 58 | 6 | 37 |
| May 2, 2026, 04:45 | 46 | 58 | 7 | 336 |
| May 2, 2026, 04:30 | 46 | 58 | 10 | 9 |
| May 2, 2026, 04:15 | 46 | 58 | 43 | 18 |
| May 2, 2026, 04:00 | 46 | 58 | 78 | 28 |
| May 2, 2026, 03:45 | 47 | 58 | 119 | 80 |
| May 2, 2026, 03:30 | 47 | 58 | 9 | 32 |
| May 2, 2026, 03:15 | 48 | 59 | 5 | 228 |
| May 2, 2026, 03:00 | 48 | 59 | 4 | 248 |
| May 2, 2026, 02:45 | 49 | 59 | 5 | 28 |
| May 2, 2026, 02:30 | 49 | 58 | 86 | 344 |
| May 2, 2026, 02:15 | 50 | 59 | 7 | 81 |
| May 2, 2026, 02:00 | 50 | 58 | 4 | 167 |
| May 2, 2026, 01:45 | 51 | 58 | 5 | 195 |
| May 2, 2026, 01:30 | 51 | 59 | 4 | 33 |
| May 2, 2026, 01:15 | 51 | 59 | 5 | 245 |
| May 2, 2026, 01:00 | 51 | 59 | 4 | 180 |
| May 2, 2026, 00:45 | 51 | 58 | 3 | 220 |
| May 2, 2026, 00:30 | 52 | 59 | 2 | 219 |
| May 2, 2026, 00:15 | 52 | 59 | 3 | 199 |
| May 1, 2026, 24:00 | 52 | 59 | 3 | 272 |
| May 1, 2026, 23:45 | 52 | 59 | 1 | 264 |
| May 1, 2026, 23:30 | 52 | 59 | 1 | 17 |
| May 1, 2026, 23:15 | 52 | 59 | 3 | 65 |
| May 1, 2026, 23:00 | 52 | 59 | 15 | 71 |
| May 1, 2026, 22:45 | 52 | 59 | 5 | 213 |
| May 1, 2026, 22:30 | 51 | 59 | 2 | 193 |
| May 1, 2026, 22:15 | 51 | 59 | 2 | 252 |
| May 1, 2026, 22:00 | 52 | 59 | 4 | 281 |
| May 1, 2026, 21:45 | 52 | 59 | 48 | 40 |
| May 1, 2026, 21:30 | 52 | 59 | 18 | 341 |
| May 1, 2026, 21:15 | 52 | 59 | 46 | 23 |
| May 1, 2026, 21:00 | 52 | 59 | 3 | 251 |
| May 1, 2026, 20:45 | 52 | 59 | 2 | 25 |
| May 1, 2026, 20:30 | 52 | 59 | 3 | 100 |
| May 1, 2026, 20:15 | 51 | 58 | 6 | 237 |
| May 1, 2026, 20:00 | 51 | 58 | 3 | 114 |
| May 1, 2026, 19:45 | 51 | 58 | 3 | 240 |
| May 1, 2026, 19:30 | 50 | 58 | 5 | 227 |
| May 1, 2026, 19:15 | 51 | 58 | 143 | 233 |
| May 1, 2026, 19:00 | 50 | 58 | 222 | 62 |
| May 1, 2026, 18:45 | 50 | 58 | 47 | 46 |
| May 1, 2026, 18:30 | 50 | 58 | 12 | 241 |
| May 1, 2026, 18:15 | 49 | 58 | 104 | 14 |
| May 1, 2026, 18:00 | 49 | 58 | 6 | 7 |
| May 1, 2026, 17:45 | 49 | 58 | 4 | 229 |
| May 1, 2026, 17:30 | 49 | 58 | 6 | 57 |
| May 1, 2026, 17:15 | 48 | 58 | 3 | 84 |
| May 1, 2026, 17:00 | 48 | 58 | 3 | 127 |
| May 1, 2026, 16:45 | 47 | 58 | 5 | 58 |
| May 1, 2026, 16:30 | 47 | 58 | 24 | 81 |
| May 1, 2026, 16:15 | 46 | 57 | 47 | 56 |
| May 1, 2026, 16:00 | 46 | 57 | 78 | 49 |
| May 1, 2026, 15:45 | 45 | 57 | 7 | 10 |
| May 1, 2026, 15:30 | 45 | 57 | 4 | 270 |
| May 1, 2026, 15:15 | 45 | 57 | 4 | 136 |
| May 1, 2026, 15:00 | 45 | 57 | 5 | 51 |
| May 1, 2026, 14:45 | 44 | 57 | 4 | 307 |
| May 1, 2026, 14:30 | 44 | 57 | 3 | 209 |
| May 1, 2026, 14:15 | 44 | 57 | 6 | 167 |
| May 1, 2026, 14:00 | 43 | 57 | 6 | 162 |
| May 1, 2026, 13:45 | 43 | 57 | 6 | 105 |
| May 1, 2026, 13:30 | 43 | 57 | 5 | 142 |
| May 1, 2026, 13:15 | 42 | 57 | 3 | 299 |
| May 1, 2026, 13:00 | 42 | 57 | 3 | 238 |
| May 1, 2026, 12:45 | 41 | 57 | 1 | 207 |
| May 1, 2026, 12:30 | 41 | 57 | 2 | 219 |
| May 1, 2026, 12:15 | 41 | 57 | 2 | 359 |
| May 1, 2026, 12:00 | 41 | 57 | 1 | 198 |
| May 1, 2026, 11:45 | 41 | 57 | 2 | 185 |
| May 1, 2026, 11:30 | 41 | 57 | 5 | 242 |
| May 1, 2026, 11:15 | 41 | 57 | 4 | 171 |
| May 1, 2026, 11:00 | 41 | 57 | 3 | 180 |
| May 1, 2026, 10:45 | 42 | 57 | 1 | 160 |
| May 1, 2026, 10:30 | 41 | 57 | 1 | 183 |
| May 1, 2026, 10:15 | 41 | 57 | 2 | 214 |
| May 1, 2026, 10:00 | 41 | 57 | 3 | 212 |
| May 1, 2026, 09:45 | 41 | 57 | 2 | 177 |
| May 1, 2026, 09:30 | 41 | 57 | 2 | 166 |
| May 1, 2026, 09:15 | 41 | 57 | 2 | 214 |
| May 1, 2026, 09:00 | 42 | 57 | 3 | 235 |
| May 1, 2026, 08:45 | 42 | 57 | 4 | 228 |
| May 1, 2026, 08:30 | 42 | 57 | 5 | 176 |
| May 1, 2026, 08:15 | 43 | 57 | 3 | 264 |
| May 1, 2026, 08:00 | 42 | 57 | 3 | 176 |
| May 1, 2026, 07:45 | 42 | 57 | 2 | 217 |
| May 1, 2026, 07:30 | 42 | 57 | 2 | 158 |
| May 1, 2026, 07:15 | 42 | 57 | 3 | 246 |